SAS987 EKCH-RKSI
Flight info
| Callsign | SAS987 |
|---|---|
| Flight time | N/A |
| Altitude | 35000 |
| Route | KEMAX N851 NEXIL DCT VIBAR DCT DIGOX DCT PEPIG DCT ADOPO DCT KOKAT/K0876F350 N746 ARGIP T821 NAREK B946 LAGNI G719 TARSA R809 PTG G490 OMITA A920 KTN A91 AGINO A810 TELOK A345 MANLI/K0870S1065 A345 GOLOT/K0889F350 A575 YOMJU L683 JONJU DCT SASRI/N0482F350 |
| Aircraft | A333/H-SDE3GHIJ2J3J5M1RVWXY/LB2D1 |
Departure
| Time | 2026-05-07 07:28 |
|---|---|
| Airport | Copenhagen Kastrup Airport (EKCH) |
Arrival
| Time | N/A |
|---|---|
| Airport | Incheon International Airport (RKSI) |
| Time | Latitude | Longitude | Altitude | Speed | Heading |
|---|---|---|---|---|---|
| 2026-05-07 06:56 | 55.62644 | 12.65059 | 27 ft | 0 kts | 278° |
| 2026-05-07 07:16 | 55.62643 | 12.65072 | 27 ft | 4 kts | 276° |
| 2026-05-07 07:16 | 55.62642 | 12.65120 | 27 ft | 4 kts | 260° |
| 2026-05-07 07:17 | 55.62650 | 12.65163 | 27 ft | 4 kts | 232° |
| 2026-05-07 07:17 | 55.62668 | 12.65186 | 27 ft | 2 kts | 180° |
| 2026-05-07 07:17 | 55.62674 | 12.65186 | 27 ft | 0 kts | 179° |
| 2026-05-07 07:20 | 55.62659 | 12.65186 | 27 ft | 5 kts | 180° |
| 2026-05-07 07:21 | 55.62595 | 12.65181 | 27 ft | 13 kts | 181° |
| 2026-05-07 07:21 | 55.62496 | 12.65185 | 27 ft | 15 kts | 177° |
| 2026-05-07 07:21 | 55.62394 | 12.65203 | 27 ft | 15 kts | 179° |
| 2026-05-07 07:21 | 55.62278 | 12.65198 | 27 ft | 18 kts | 180° |
| 2026-05-07 07:22 | 55.62160 | 12.65123 | 28 ft | 18 kts | 214° |
| 2026-05-07 07:22 | 55.62052 | 12.64999 | 28 ft | 19 kts | 211° |
| 2026-05-07 07:22 | 55.61942 | 12.64872 | 27 ft | 19 kts | 215° |
| 2026-05-07 07:22 | 55.61833 | 12.64745 | 27 ft | 18 kts | 213° |
| 2026-05-07 07:23 | 55.61727 | 12.64622 | 27 ft | 18 kts | 213° |
| 2026-05-07 07:23 | 55.61624 | 12.64504 | 27 ft | 18 kts | 213° |
| 2026-05-07 07:23 | 55.61521 | 12.64385 | 27 ft | 17 kts | 213° |
| 2026-05-07 07:23 | 55.61419 | 12.64273 | 27 ft | 17 kts | 211° |
| 2026-05-07 07:24 | 55.61320 | 12.64158 | 27 ft | 17 kts | 214° |
| 2026-05-07 07:24 | 55.61222 | 12.64049 | 27 ft | 17 kts | 207° |
| 2026-05-07 07:24 | 55.61159 | 12.63983 | 27 ft | 15 kts | 213° |
| 2026-05-07 07:24 | 55.61073 | 12.63873 | 27 ft | 15 kts | 214° |
| 2026-05-07 07:25 | 55.60889 | 12.63661 | 27 ft | 20 kts | 212° |
| 2026-05-07 07:25 | 55.60760 | 12.63510 | 27 ft | 23 kts | 213° |
| 2026-05-07 07:25 | 55.60627 | 12.63351 | 27 ft | 21 kts | 220° |
| 2026-05-07 07:26 | 55.60522 | 12.63184 | 27 ft | 19 kts | 222° |
| 2026-05-07 07:26 | 55.60431 | 12.63136 | 27 ft | 13 kts | 160° |
| 2026-05-07 07:26 | 55.60363 | 12.63243 | 28 ft | 12 kts | 131° |
| 2026-05-07 07:26 | 55.60337 | 12.63330 | 30 ft | 5 kts | 82° |
| 2026-05-07 07:27 | 55.60358 | 12.63375 | 30 ft | 5 kts | 40° |
| 2026-05-07 07:27 | 55.60453 | 12.63520 | 28 ft | 42 kts | 41° |
| 2026-05-07 07:27 | 55.60820 | 12.64087 | 30 ft | 97 kts | 41° |
| 2026-05-07 07:27 | 55.61460 | 12.65083 | 30 ft | 147 kts | 41° |
| 2026-05-07 07:28 | 55.62249 | 12.66329 | 484 ft | 154 kts | 40° |
| 2026-05-07 07:28 | 55.63069 | 12.67609 | 1116 ft | 160 kts | 40° |
| 2026-05-07 07:28 | 55.63901 | 12.68893 | 1853 ft | 157 kts | 41° |
| 2026-05-07 07:28 | 55.64732 | 12.70163 | 2359 ft | 159 kts | 40° |
| 2026-05-07 07:29 | 55.65577 | 12.71432 | 2766 ft | 163 kts | 39° |
| 2026-05-07 07:29 | 55.66453 | 12.72741 | 3176 ft | 169 kts | 39° |
| 2026-05-07 07:29 | 55.67406 | 12.74161 | 3405 ft | 187 kts | 39° |
| 2026-05-07 07:29 | 55.68456 | 12.75726 | 3629 ft | 207 kts | 39° |
| 2026-05-07 07:30 | 55.69615 | 12.77455 | 3847 ft | 227 kts | 39° |
| 2026-05-07 07:30 | 55.70862 | 12.79319 | 4113 ft | 242 kts | 39° |
| 2026-05-07 07:30 | 55.72186 | 12.81298 | 4487 ft | 254 kts | 39° |
| 2026-05-07 07:30 | 55.73546 | 12.83338 | 5090 ft | 257 kts | 40° |
| 2026-05-07 07:31 | 55.74904 | 12.85430 | 5745 ft | 260 kts | 40° |
| 2026-05-07 07:31 | 55.76268 | 12.87562 | 6401 ft | 262 kts | 40° |
| 2026-05-07 07:31 | 55.77623 | 12.89688 | 7020 ft | 265 kts | 40° |
| 2026-05-07 07:31 | 55.79011 | 12.91870 | 7650 ft | 267 kts | 40° |
| 2026-05-07 07:32 | 55.80413 | 12.94075 | 8300 ft | 270 kts | 40° |
| 2026-05-07 07:32 | 55.81828 | 12.96306 | 8933 ft | 273 kts | 40° |
| 2026-05-07 07:32 | 55.83262 | 12.98564 | 9572 ft | 277 kts | 40° |
| 2026-05-07 07:32 | 55.84710 | 13.00849 | 10167 ft | 280 kts | 40° |
| 2026-05-07 07:33 | 55.86205 | 13.03209 | 10467 ft | 295 kts | 40° |
| 2026-05-07 07:33 | 55.87781 | 13.05698 | 10673 ft | 310 kts | 40° |
| 2026-05-07 07:33 | 55.89439 | 13.08320 | 10917 ft | 326 kts | 41° |
| 2026-05-07 07:33 | 55.91175 | 13.11069 | 11146 ft | 341 kts | 40° |
| 2026-05-07 07:34 | 55.92961 | 13.13902 | 11367 ft | 355 kts | 40° |
| 2026-05-07 07:34 | 55.94842 | 13.16891 | 11658 ft | 367 kts | 40° |
| 2026-05-07 07:34 | 55.96766 | 13.19953 | 12105 ft | 373 kts | 40° |
| 2026-05-07 07:34 | 55.98714 | 13.23058 | 12626 ft | 378 kts | 40° |
| 2026-05-07 07:35 | 56.00690 | 13.26211 | 13132 ft | 382 kts | 40° |
| 2026-05-07 07:35 | 56.02684 | 13.29397 | 13669 ft | 386 kts | 40° |
| 2026-05-07 07:35 | 56.04699 | 13.32621 | 14152 ft | 390 kts | 40° |
| 2026-05-07 07:35 | 56.06732 | 13.35880 | 14608 ft | 394 kts | 40° |
| 2026-05-07 07:36 | 56.08787 | 13.39178 | 15072 ft | 398 kts | 40° |
| 2026-05-07 07:36 | 56.10857 | 13.42507 | 15517 ft | 402 kts | 40° |
| 2026-05-07 07:36 | 56.12991 | 13.45802 | 15999 ft | 405 kts | 37° |
| 2026-05-07 07:36 | 56.15220 | 13.48926 | 16451 ft | 408 kts | 35° |
| 2026-05-07 07:37 | 56.17513 | 13.51961 | 16911 ft | 412 kts | 34° |
| 2026-05-07 07:37 | 56.19821 | 13.54935 | 17324 ft | 415 kts | 33° |
| 2026-05-07 07:37 | 56.22184 | 13.57962 | 17766 ft | 419 kts | 34° |
| 2026-05-07 07:37 | 56.24565 | 13.61029 | 18181 ft | 423 kts | 34° |
| 2026-05-07 07:38 | 56.26960 | 13.64136 | 18569 ft | 426 kts | 34° |
| 2026-05-07 07:38 | 56.29370 | 13.67285 | 18929 ft | 430 kts | 34° |
| 2026-05-07 07:38 | 56.31789 | 13.70484 | 19293 ft | 433 kts | 36° |
| 2026-05-07 07:38 | 56.34072 | 13.74062 | 19648 ft | 437 kts | 43° |
| 2026-05-07 07:39 | 56.36217 | 13.77992 | 20036 ft | 441 kts | 45° |
| 2026-05-07 07:39 | 56.38314 | 13.82075 | 20392 ft | 444 kts | 46° |
| 2026-05-07 07:39 | 56.40381 | 13.86251 | 20746 ft | 447 kts | 47° |
| 2026-05-07 07:39 | 56.42438 | 13.90485 | 21098 ft | 450 kts | 47° |
| 2026-05-07 07:40 | 56.44505 | 13.94765 | 21430 ft | 453 kts | 47° |
| 2026-05-07 07:40 | 56.46588 | 13.99082 | 21725 ft | 458 kts | 47° |
| 2026-05-07 07:40 | 56.48693 | 14.03436 | 22007 ft | 462 kts | 47° |
| 2026-05-07 07:40 | 56.50817 | 14.07822 | 22355 ft | 464 kts | 47° |
| 2026-05-07 07:41 | 56.52955 | 14.12235 | 22701 ft | 467 kts | 47° |
| 2026-05-07 07:41 | 56.55104 | 14.16675 | 23032 ft | 470 kts | 47° |
| 2026-05-07 07:41 | 56.57239 | 14.21089 | 23381 ft | 473 kts | 47° |
| 2026-05-07 07:41 | 56.59412 | 14.25590 | 23712 ft | 475 kts | 47° |
| 2026-05-07 07:42 | 56.61594 | 14.30120 | 24007 ft | 477 kts | 47° |
| 2026-05-07 07:42 | 56.63783 | 14.34672 | 24291 ft | 479 kts | 47° |
| 2026-05-07 07:42 | 56.65984 | 14.39258 | 24590 ft | 481 kts | 47° |
| 2026-05-07 07:42 | 56.68190 | 14.43864 | 24872 ft | 484 kts | 47° |
| 2026-05-07 07:43 | 56.70401 | 14.48491 | 25155 ft | 486 kts | 47° |
| 2026-05-07 07:43 | 56.72623 | 14.53150 | 25436 ft | 488 kts | 47° |
| 2026-05-07 07:43 | 56.74849 | 14.57826 | 25710 ft | 490 kts | 47° |
| 2026-05-07 07:43 | 56.77088 | 14.62539 | 25992 ft | 492 kts | 47° |
| 2026-05-07 07:44 | 56.79332 | 14.67271 | 26294 ft | 494 kts | 47° |
| 2026-05-07 07:44 | 56.81586 | 14.72036 | 26551 ft | 497 kts | 47° |
| 2026-05-07 07:44 | 56.83818 | 14.76761 | 26814 ft | 499 kts | 47° |
| 2026-05-07 07:44 | 56.86091 | 14.81582 | 27004 ft | 502 kts | 48° |
| 2026-05-07 07:45 | 56.88379 | 14.86445 | 27210 ft | 506 kts | 48° |
| 2026-05-07 07:45 | 56.90679 | 14.91347 | 27491 ft | 507 kts | 48° |
| 2026-05-07 07:45 | 56.92979 | 14.96258 | 27772 ft | 509 kts | 48° |
| 2026-05-07 07:45 | 56.95286 | 15.01194 | 28041 ft | 511 kts | 48° |
| 2026-05-07 07:46 | 56.97599 | 15.06155 | 28294 ft | 513 kts | 48° |
| 2026-05-07 07:46 | 56.99922 | 15.11144 | 28561 ft | 515 kts | 48° |
| 2026-05-07 07:46 | 57.02252 | 15.16163 | 28785 ft | 518 kts | 48° |
| 2026-05-07 07:46 | 57.04588 | 15.21202 | 29060 ft | 519 kts | 48° |
| 2026-05-07 07:47 | 57.06925 | 15.26256 | 29431 ft | 518 kts | 48° |
| 2026-05-07 07:47 | 57.09257 | 15.31308 | 29809 ft | 517 kts | 48° |
| 2026-05-07 07:47 | 57.11580 | 15.36354 | 30138 ft | 517 kts | 48° |
| 2026-05-07 07:47 | 57.13903 | 15.41409 | 30443 ft | 517 kts | 48° |
| 2026-05-07 07:48 | 57.16219 | 15.46458 | 30714 ft | 516 kts | 49° |
| 2026-05-07 07:48 | 57.18536 | 15.51521 | 30988 ft | 516 kts | 49° |
| 2026-05-07 07:48 | 57.20849 | 15.56586 | 31275 ft | 516 kts | 49° |
| 2026-05-07 07:48 | 57.23129 | 15.61591 | 31589 ft | 515 kts | 48° |
| 2026-05-07 07:49 | 57.25434 | 15.66659 | 31745 ft | 517 kts | 49° |
| 2026-05-07 07:49 | 57.27750 | 15.71762 | 31973 ft | 518 kts | 49° |
| 2026-05-07 07:49 | 57.30062 | 15.76870 | 32248 ft | 517 kts | 49° |
| 2026-05-07 07:49 | 57.32369 | 15.81976 | 32523 ft | 517 kts | 49° |
| 2026-05-07 07:50 | 57.34673 | 15.87090 | 32794 ft | 516 kts | 49° |
| 2026-05-07 07:50 | 57.36974 | 15.92206 | 33065 ft | 516 kts | 49° |
| 2026-05-07 07:50 | 57.39267 | 15.97313 | 33298 ft | 516 kts | 49° |
| 2026-05-07 07:50 | 57.41559 | 16.02431 | 33540 ft | 515 kts | 49° |
| 2026-05-07 07:51 | 57.43819 | 16.07486 | 33778 ft | 515 kts | 49° |
| 2026-05-07 07:51 | 57.46107 | 16.12616 | 33995 ft | 516 kts | 49° |
| 2026-05-07 07:51 | 57.48402 | 16.17773 | 34101 ft | 518 kts | 49° |
| 2026-05-07 07:51 | 57.50698 | 16.22944 | 34278 ft | 518 kts | 49° |
| 2026-05-07 07:52 | 57.52985 | 16.28106 | 34498 ft | 517 kts | 49° |
| 2026-05-07 07:52 | 57.55275 | 16.33285 | 34685 ft | 516 kts | 49° |
| 2026-05-07 07:52 | 57.57561 | 16.38453 | 34870 ft | 516 kts | 48° |
| 2026-05-07 07:52 | 57.59929 | 16.43467 | 35016 ft | 516 kts | 46° |
| 2026-05-07 07:53 | 57.62389 | 16.48361 | 35049 ft | 518 kts | 44° |
| 2026-05-07 07:53 | 57.67389 | 16.57996 | 35057 ft | 519 kts | 44° |
| 2026-05-07 07:54 | 57.72412 | 16.67729 | 35059 ft | 519 kts | 45° |
| 2026-05-07 07:54 | 57.77390 | 16.77525 | 35062 ft | 519 kts | 45° |
| 2026-05-07 07:55 | 57.82312 | 16.87305 | 35062 ft | 519 kts | 45° |
| 2026-05-07 07:55 | 57.87258 | 16.97183 | 35062 ft | 519 kts | 45° |
| 2026-05-07 07:56 | 57.92208 | 17.07109 | 35054 ft | 520 kts | 45° |
| 2026-05-07 07:56 | 57.97158 | 17.17073 | 35059 ft | 522 kts | 45° |
| 2026-05-07 07:57 | 58.02119 | 17.27101 | 35057 ft | 522 kts | 45° |
| 2026-05-07 07:57 | 58.07057 | 17.37129 | 35074 ft | 522 kts | 45° |
| 2026-05-07 07:58 | 58.11996 | 17.47200 | 35081 ft | 521 kts | 46° |
| 2026-05-07 07:58 | 58.16927 | 17.57299 | 35059 ft | 523 kts | 46° |
| 2026-05-07 07:59 | 58.21825 | 17.67377 | 35066 ft | 523 kts | 46° |
| 2026-05-07 07:59 | 58.26751 | 17.77555 | 35064 ft | 523 kts | 46° |
| 2026-05-07 08:00 | 58.31675 | 17.87776 | 35060 ft | 523 kts | 46° |
| 2026-05-07 08:00 | 58.36567 | 17.97975 | 35070 ft | 524 kts | 46° |
| 2026-05-07 08:01 | 58.41492 | 18.08288 | 35067 ft | 526 kts | 46° |
| 2026-05-07 08:01 | 58.46412 | 18.18641 | 35063 ft | 526 kts | 46° |
| 2026-05-07 08:02 | 58.51315 | 18.29003 | 35061 ft | 525 kts | 46° |
| 2026-05-07 08:02 | 58.56217 | 18.39408 | 35066 ft | 526 kts | 46° |
| 2026-05-07 08:03 | 58.61106 | 18.49832 | 35068 ft | 526 kts | 46° |
| 2026-05-07 08:03 | 58.65967 | 18.60242 | 35063 ft | 526 kts | 46° |
| 2026-05-07 08:04 | 58.70844 | 18.70735 | 35064 ft | 526 kts | 46° |
| 2026-05-07 08:04 | 58.75713 | 18.81259 | 35063 ft | 526 kts | 47° |
| 2026-05-07 08:05 | 58.80575 | 18.91819 | 35066 ft | 526 kts | 47° |
| 2026-05-07 08:05 | 58.85425 | 19.02398 | 35069 ft | 526 kts | 47° |
| 2026-05-07 08:06 | 58.90273 | 19.13020 | 35069 ft | 526 kts | 47° |
| 2026-05-07 08:06 | 58.95112 | 19.23672 | 35070 ft | 526 kts | 47° |
| 2026-05-07 08:07 | 58.99939 | 19.34348 | 35069 ft | 526 kts | 47° |
| 2026-05-07 08:07 | 59.04735 | 19.45003 | 35073 ft | 527 kts | 47° |
| 2026-05-07 08:08 | 59.09551 | 19.55750 | 35067 ft | 528 kts | 47° |
| 2026-05-07 08:08 | 59.14038 | 19.67096 | 35066 ft | 529 kts | 53° |
| 2026-05-07 08:09 | 59.17610 | 19.76807 | 35066 ft | 530 kts | 54° |
| 2026-05-07 08:09 | 59.21851 | 19.88580 | 35070 ft | 530 kts | 54° |
| 2026-05-07 08:10 | 59.26074 | 20.00382 | 35068 ft | 530 kts | 54° |
| 2026-05-07 08:10 | 59.30306 | 20.12235 | 35069 ft | 531 kts | 54° |
| 2026-05-07 08:11 | 59.34525 | 20.24097 | 35071 ft | 531 kts | 54° |
| 2026-05-07 08:11 | 59.38735 | 20.35990 | 35067 ft | 530 kts | 54° |
| 2026-05-07 08:12 | 59.42937 | 20.47918 | 35047 ft | 530 kts | 54° |
| 2026-05-07 08:12 | 59.47129 | 20.59885 | 35069 ft | 532 kts | 54° |
| 2026-05-07 08:13 | 59.51291 | 20.71824 | 35069 ft | 532 kts | 55° |
| 2026-05-07 08:13 | 59.55467 | 20.83866 | 35070 ft | 532 kts | 55° |
| 2026-05-07 08:14 | 59.59635 | 20.95945 | 35067 ft | 532 kts | 55° |
| 2026-05-07 08:14 | 59.63797 | 21.08068 | 35104 ft | 532 kts | 55° |
| 2026-05-07 08:15 | 59.67945 | 21.20217 | 35067 ft | 532 kts | 55° |
| 2026-05-07 08:15 | 59.72080 | 21.32385 | 35069 ft | 532 kts | 55° |
| 2026-05-07 08:16 | 59.76176 | 21.44507 | 35068 ft | 532 kts | 55° |
| 2026-05-07 08:16 | 59.80295 | 21.56758 | 35068 ft | 533 kts | 56° |
| 2026-05-07 08:17 | 59.84399 | 21.69025 | 35066 ft | 533 kts | 56° |
| 2026-05-07 08:17 | 59.88502 | 21.81358 | 35070 ft | 533 kts | 56° |
| 2026-05-07 08:18 | 59.92563 | 21.93629 | 35064 ft | 533 kts | 56° |
| 2026-05-07 08:18 | 59.96638 | 22.06004 | 35064 ft | 533 kts | 56° |
| 2026-05-07 08:19 | 60.00699 | 22.18408 | 35065 ft | 533 kts | 56° |
| 2026-05-07 08:19 | 60.04752 | 22.30848 | 35073 ft | 533 kts | 56° |
| 2026-05-07 08:20 | 60.08798 | 22.43336 | 35061 ft | 534 kts | 56° |
| 2026-05-07 08:20 | 60.12831 | 22.55850 | 35056 ft | 534 kts | 57° |
| 2026-05-07 08:21 | 60.16895 | 22.68354 | 35062 ft | 534 kts | 56° |
| 2026-05-07 08:21 | 60.20976 | 22.80711 | 35059 ft | 534 kts | 56° |
| 2026-05-07 08:22 | 60.25081 | 22.93181 | 35081 ft | 534 kts | 56° |
| 2026-05-07 08:22 | 60.29172 | 23.05708 | 35059 ft | 535 kts | 56° |
| 2026-05-07 08:23 | 60.33248 | 23.18273 | 35057 ft | 535 kts | 56° |
| 2026-05-07 08:23 | 60.37316 | 23.30890 | 35055 ft | 535 kts | 57° |
| 2026-05-07 08:24 | 60.41376 | 23.43548 | 35055 ft | 535 kts | 57° |
| 2026-05-07 08:24 | 60.45394 | 23.56144 | 35063 ft | 536 kts | 57° |
| 2026-05-07 08:25 | 60.49425 | 23.68852 | 35053 ft | 536 kts | 57° |
| 2026-05-07 08:25 | 60.53445 | 23.81590 | 35053 ft | 536 kts | 57° |
| 2026-05-07 08:26 | 60.59457 | 24.00777 | 35050 ft | 536 kts | 57° |
| 2026-05-07 08:26 | 60.63446 | 24.13594 | 35045 ft | 536 kts | 57° |
| 2026-05-07 08:27 | 60.67432 | 24.26471 | 35046 ft | 537 kts | 57° |
| 2026-05-07 08:27 | 60.71406 | 24.39383 | 35045 ft | 537 kts | 58° |
| 2026-05-07 08:28 | 60.75373 | 24.52345 | 35039 ft | 537 kts | 58° |
| 2026-05-07 08:28 | 60.79321 | 24.65319 | 35040 ft | 537 kts | 58° |
| 2026-05-07 08:29 | 60.83236 | 24.78254 | 35040 ft | 536 kts | 58° |
| 2026-05-07 08:29 | 60.87161 | 24.91299 | 35043 ft | 537 kts | 58° |
| 2026-05-07 08:30 | 60.91078 | 25.04392 | 35043 ft | 538 kts | 58° |
| 2026-05-07 08:30 | 60.94988 | 25.17538 | 35043 ft | 538 kts | 58° |
| 2026-05-07 08:31 | 60.98856 | 25.30612 | 35042 ft | 538 kts | 58° |
| 2026-05-07 08:31 | 61.02731 | 25.43789 | 35048 ft | 537 kts | 58° |
| 2026-05-07 08:32 | 61.06599 | 25.57018 | 35048 ft | 539 kts | 58° |
| 2026-05-07 08:32 | 61.10461 | 25.70301 | 35047 ft | 539 kts | 59° |
| 2026-05-07 08:33 | 61.14307 | 25.83609 | 35021 ft | 539 kts | 59° |
| 2026-05-07 08:33 | 61.18143 | 25.96956 | 35050 ft | 538 kts | 59° |
| 2026-05-07 08:34 | 61.21960 | 26.10320 | 35085 ft | 538 kts | 59° |
| 2026-05-07 08:34 | 61.25754 | 26.23677 | 35054 ft | 540 kts | 59° |
| 2026-05-07 08:35 | 61.29557 | 26.37148 | 35059 ft | 540 kts | 59° |
| 2026-05-07 08:35 | 61.33346 | 26.50648 | 35058 ft | 540 kts | 59° |
| 2026-05-07 08:36 | 61.37122 | 26.64181 | 35063 ft | 540 kts | 59° |
| 2026-05-07 08:36 | 61.40884 | 26.77747 | 35085 ft | 540 kts | 59° |
| 2026-05-07 08:37 | 61.44734 | 26.91249 | 35067 ft | 540 kts | 57° |
| 2026-05-07 08:37 | 61.48714 | 27.04455 | 35053 ft | 540 kts | 57° |
| 2026-05-07 08:38 | 61.52727 | 27.17748 | 35068 ft | 539 kts | 57° |
| 2026-05-07 08:38 | 61.56705 | 27.31093 | 35050 ft | 539 kts | 57° |
| 2026-05-07 08:39 | 61.60657 | 27.44490 | 35065 ft | 539 kts | 57° |
| 2026-05-07 08:39 | 61.64601 | 27.57953 | 35056 ft | 540 kts | 57° |
| 2026-05-07 08:40 | 61.68532 | 27.71452 | 35057 ft | 540 kts | 58° |
| 2026-05-07 08:40 | 61.72447 | 27.84971 | 35061 ft | 540 kts | 58° |
| 2026-05-07 08:41 | 61.76327 | 27.98447 | 35066 ft | 540 kts | 58° |
| 2026-05-07 08:41 | 61.80217 | 28.12039 | 35066 ft | 540 kts | 58° |
| 2026-05-07 08:42 | 61.84098 | 28.25680 | 35036 ft | 540 kts | 58° |
| 2026-05-07 08:42 | 61.87959 | 28.39334 | 35071 ft | 539 kts | 58° |
| 2026-05-07 08:43 | 61.91805 | 28.53015 | 35072 ft | 539 kts | 58° |
| 2026-05-07 08:43 | 61.95631 | 28.66712 | 35074 ft | 539 kts | 58° |
| 2026-05-07 08:44 | 61.99448 | 28.80457 | 35082 ft | 540 kts | 58° |
| 2026-05-07 08:44 | 62.03233 | 28.94170 | 35075 ft | 541 kts | 59° |
| 2026-05-07 08:45 | 62.07030 | 29.08012 | 35071 ft | 541 kts | 59° |
| 2026-05-07 08:45 | 62.10816 | 29.21900 | 35072 ft | 541 kts | 59° |
| 2026-05-07 08:46 | 62.14589 | 29.35821 | 35075 ft | 541 kts | 59° |
| 2026-05-07 08:46 | 62.18346 | 29.49776 | 35083 ft | 542 kts | 59° |
| 2026-05-07 08:47 | 62.22098 | 29.63795 | 35065 ft | 542 kts | 59° |
| 2026-05-07 08:47 | 62.25841 | 29.77872 | 35083 ft | 543 kts | 59° |
| 2026-05-07 08:48 | 62.29548 | 29.91899 | 35063 ft | 543 kts | 59° |
| 2026-05-07 08:48 | 62.33259 | 30.06029 | 35081 ft | 543 kts | 60° |
| 2026-05-07 08:49 | 62.36959 | 30.20208 | 35072 ft | 543 kts | 60° |
| 2026-05-07 08:49 | 62.40643 | 30.34415 | 35073 ft | 543 kts | 60° |
| 2026-05-07 08:50 | 62.44313 | 30.48660 | 35070 ft | 543 kts | 60° |
| 2026-05-07 08:50 | 62.47971 | 30.62944 | 35070 ft | 543 kts | 60° |
| 2026-05-07 08:51 | 62.51591 | 30.77175 | 35072 ft | 543 kts | 60° |
| 2026-05-07 08:51 | 62.55216 | 30.91517 | 35062 ft | 542 kts | 60° |
| 2026-05-07 08:52 | 62.58830 | 31.05911 | 35073 ft | 543 kts | 60° |
| 2026-05-07 08:52 | 62.62437 | 31.20371 | 35072 ft | 543 kts | 60° |
| 2026-05-07 08:53 | 62.65997 | 31.34736 | 35070 ft | 543 kts | 60° |
| 2026-05-07 08:53 | 62.69627 | 31.49187 | 35070 ft | 543 kts | 60° |
| 2026-05-07 08:54 | 62.72678 | 31.61168 | 35076 ft | 543 kts | 59° |
| 2026-05-07 08:54 | 62.76337 | 31.75599 | 35076 ft | 543 kts | 60° |
| 2026-05-07 08:55 | 62.79979 | 31.90095 | 35075 ft | 543 kts | 60° |
| 2026-05-07 08:55 | 62.83599 | 32.04618 | 35072 ft | 543 kts | 60° |
| 2026-05-07 08:56 | 62.87177 | 32.19060 | 35073 ft | 543 kts | 60° |
| 2026-05-07 08:56 | 62.90768 | 32.33643 | 35066 ft | 543 kts | 60° |
| 2026-05-07 08:57 | 62.94344 | 32.48261 | 35075 ft | 544 kts | 60° |
| 2026-05-07 08:57 | 62.97906 | 32.62927 | 35074 ft | 544 kts | 60° |
| 2026-05-07 08:58 | 63.01465 | 32.77661 | 35075 ft | 544 kts | 60° |
| 2026-05-07 08:58 | 63.05012 | 32.92373 | 35074 ft | 544 kts | 60° |
| 2026-05-07 08:59 | 63.08548 | 33.07127 | 35076 ft | 543 kts | 60° |
| 2026-05-07 08:59 | 63.12065 | 33.21899 | 35073 ft | 543 kts | 60° |
| 2026-05-07 09:00 | 63.15564 | 33.36700 | 35078 ft | 543 kts | 61° |
| 2026-05-07 09:00 | 63.19026 | 33.51449 | 35083 ft | 543 kts | 61° |
| 2026-05-07 09:01 | 63.22505 | 33.66372 | 35106 ft | 543 kts | 61° |
| 2026-05-07 09:01 | 63.25939 | 33.81208 | 35080 ft | 542 kts | 61° |
| 2026-05-07 09:02 | 63.29376 | 33.96156 | 35083 ft | 543 kts | 61° |
| 2026-05-07 09:02 | 63.32794 | 34.11124 | 35083 ft | 543 kts | 61° |
| 2026-05-07 09:03 | 63.36202 | 34.26154 | 35083 ft | 543 kts | 62° |
| 2026-05-07 09:03 | 63.39592 | 34.41208 | 35115 ft | 543 kts | 62° |
| 2026-05-07 09:04 | 63.42967 | 34.56306 | 35077 ft | 542 kts | 62° |
| 2026-05-07 09:04 | 63.46318 | 34.71401 | 35099 ft | 542 kts | 62° |
| 2026-05-07 09:05 | 63.49630 | 34.86424 | 35078 ft | 542 kts | 62° |
| 2026-05-07 09:05 | 63.52953 | 35.01606 | 35092 ft | 542 kts | 62° |
| 2026-05-07 09:06 | 63.56254 | 35.16796 | 35079 ft | 542 kts | 62° |
| 2026-05-07 09:06 | 63.59544 | 35.32046 | 35086 ft | 542 kts | 62° |
| 2026-05-07 09:07 | 63.62825 | 35.47363 | 35086 ft | 543 kts | 63° |
| 2026-05-07 09:07 | 63.66061 | 35.62610 | 35086 ft | 543 kts | 63° |
| 2026-05-07 09:08 | 63.69297 | 35.77990 | 35086 ft | 543 kts | 63° |
| 2026-05-07 09:08 | 63.72520 | 35.93423 | 35099 ft | 543 kts | 63° |
| 2026-05-07 09:09 | 63.75720 | 36.08857 | 35095 ft | 542 kts | 63° |
| 2026-05-07 09:09 | 63.78908 | 36.24339 | 35096 ft | 542 kts | 63° |
| 2026-05-07 09:10 | 63.82073 | 36.39831 | 35086 ft | 542 kts | 63° |
| 2026-05-07 09:10 | 63.85231 | 36.55361 | 35104 ft | 542 kts | 63° |
| 2026-05-07 09:11 | 63.88358 | 36.70814 | 35112 ft | 542 kts | 64° |
| 2026-05-07 09:11 | 63.91477 | 36.86404 | 35102 ft | 542 kts | 64° |
| 2026-05-07 09:12 | 63.94521 | 37.02103 | 35111 ft | 543 kts | 64° |
| 2026-05-07 09:12 | 63.97532 | 37.17869 | 35103 ft | 543 kts | 65° |
| 2026-05-07 09:13 | 64.00528 | 37.33655 | 35098 ft | 543 kts | 65° |
| 2026-05-07 09:13 | 64.03517 | 37.49493 | 35133 ft | 543 kts | 65° |
| 2026-05-07 09:14 | 64.06484 | 37.65329 | 35110 ft | 541 kts | 65° |
| 2026-05-07 09:14 | 64.09425 | 37.81153 | 35111 ft | 541 kts | 65° |
| 2026-05-07 09:15 | 64.12332 | 37.96917 | 35111 ft | 541 kts | 65° |
| 2026-05-07 09:15 | 64.15241 | 38.12818 | 35105 ft | 541 kts | 65° |
| 2026-05-07 09:16 | 64.18136 | 38.28772 | 35128 ft | 541 kts | 66° |
| 2026-05-07 09:16 | 64.21011 | 38.44746 | 35098 ft | 541 kts | 66° |
| 2026-05-07 09:17 | 64.23871 | 38.60767 | 35102 ft | 541 kts | 66° |
| 2026-05-07 09:17 | 64.26713 | 38.76818 | 35104 ft | 542 kts | 66° |
| 2026-05-07 09:18 | 64.29550 | 38.92887 | 35107 ft | 542 kts | 66° |
| 2026-05-07 09:18 | 64.32382 | 39.08982 | 35141 ft | 542 kts | 66° |
| 2026-05-07 09:19 | 64.35181 | 39.25024 | 35104 ft | 541 kts | 66° |
| 2026-05-07 09:19 | 64.37969 | 39.41154 | 35111 ft | 540 kts | 66° |
| 2026-05-07 09:20 | 64.40739 | 39.57315 | 35113 ft | 541 kts | 67° |
| 2026-05-07 09:20 | 64.43493 | 39.73516 | 35113 ft | 541 kts | 67° |
| 2026-05-07 09:21 | 64.46265 | 39.89727 | 35142 ft | 541 kts | 66° |
| 2026-05-07 09:21 | 64.49042 | 40.05945 | 35102 ft | 541 kts | 66° |
| 2026-05-07 09:22 | 64.51788 | 40.22129 | 35102 ft | 542 kts | 67° |
| 2026-05-07 09:22 | 64.54531 | 40.38452 | 35102 ft | 542 kts | 67° |
| 2026-05-07 09:23 | 64.57255 | 40.54825 | 35102 ft | 542 kts | 67° |
| 2026-05-07 09:23 | 64.59742 | 40.71394 | 35134 ft | 543 kts | 77° |
| 2026-05-07 09:24 | 64.60958 | 40.88744 | 35103 ft | 543 kts | 82° |
| 2026-05-07 09:24 | 64.61868 | 41.06245 | 35101 ft | 544 kts | 84° |
| 2026-05-07 09:25 | 64.62705 | 41.23793 | 35103 ft | 544 kts | 84° |
| 2026-05-07 09:25 | 64.63530 | 41.41213 | 35090 ft | 544 kts | 84° |
| 2026-05-07 09:26 | 64.64358 | 41.58788 | 35108 ft | 545 kts | 84° |
| 2026-05-07 09:26 | 64.65171 | 41.76365 | 35108 ft | 545 kts | 84° |
| 2026-05-07 09:27 | 64.65953 | 41.93982 | 35108 ft | 546 kts | 84° |
| 2026-05-07 09:28 | 64.67078 | 42.20456 | 35109 ft | 546 kts | 84° |
| 2026-05-07 09:28 | 64.67802 | 42.38105 | 35110 ft | 546 kts | 85° |
| 2026-05-07 09:29 | 64.68505 | 42.55769 | 35116 ft | 546 kts | 85° |
| 2026-05-07 09:29 | 64.69190 | 42.73468 | 35119 ft | 546 kts | 85° |
| 2026-05-07 09:30 | 64.69862 | 42.91166 | 35124 ft | 547 kts | 85° |
| 2026-05-07 09:30 | 64.70528 | 43.08793 | 35118 ft | 546 kts | 85° |
| 2026-05-07 09:31 | 64.71180 | 43.26513 | 35117 ft | 546 kts | 85° |
| 2026-05-07 09:31 | 64.72033 | 43.44181 | 35116 ft | 546 kts | 79° |
| 2026-05-07 09:32 | 64.73431 | 43.61654 | 35117 ft | 546 kts | 78° |
| 2026-05-07 09:32 | 64.74922 | 43.79105 | 35114 ft | 546 kts | 78° |
| 2026-05-07 09:33 | 64.76400 | 43.96456 | 35111 ft | 546 kts | 78° |
| 2026-05-07 09:33 | 64.77856 | 44.13942 | 35108 ft | 546 kts | 78° |
| 2026-05-07 09:34 | 64.79284 | 44.31453 | 35112 ft | 546 kts | 78° |
| 2026-05-07 09:34 | 64.80687 | 44.48957 | 35111 ft | 546 kts | 78° |
| 2026-05-07 09:35 | 64.82071 | 44.66499 | 35106 ft | 546 kts | 79° |
| 2026-05-07 09:35 | 64.83434 | 44.84051 | 33317 ft | 545 kts | 79° |
| 2026-05-07 09:35 | 64.84097 | 44.92734 | 33544 ft | 533 kts | 80° |
| 2026-05-07 09:36 | 64.84698 | 45.01221 | 33793 ft | 522 kts | 81° |
| 2026-05-07 09:36 | 64.85249 | 45.09483 | 34037 ft | 514 kts | 81° |
| 2026-05-07 09:36 | 64.85782 | 45.17733 | 34284 ft | 506 kts | 82° |
| 2026-05-07 09:36 | 64.86300 | 45.25864 | 34530 ft | 499 kts | 82° |
| 2026-05-07 09:37 | 64.86808 | 45.33885 | 34775 ft | 492 kts | 82° |
| 2026-05-07 09:37 | 64.87307 | 45.41787 | 34973 ft | 486 kts | 82° |
| 2026-05-07 09:37 | 64.87800 | 45.49622 | 35000 ft | 484 kts | 82° |
| 2026-05-07 09:38 | 64.88613 | 45.62609 | 34999 ft | 481 kts | 82° |
| 2026-05-07 09:38 | 64.89848 | 45.78048 | 34999 ft | 478 kts | 77° |
| 2026-05-07 09:39 | 64.91405 | 45.93223 | 34999 ft | 475 kts | 76° |
| 2026-05-07 09:39 | 64.93003 | 46.08325 | 34999 ft | 473 kts | 76° |
| 2026-05-07 09:40 | 64.94582 | 46.23350 | 34999 ft | 470 kts | 76° |
| 2026-05-07 09:40 | 64.96127 | 46.38294 | 35000 ft | 468 kts | 76° |
| 2026-05-07 09:41 | 64.97646 | 46.53194 | 34999 ft | 465 kts | 77° |
| 2026-05-07 09:41 | 64.99098 | 46.68045 | 34999 ft | 463 kts | 77° |
| 2026-05-07 09:42 | 65.00470 | 46.82800 | 34999 ft | 461 kts | 78° |
| 2026-05-07 09:42 | 65.01826 | 46.97597 | 35000 ft | 459 kts | 78° |
| 2026-05-07 09:43 | 65.03166 | 47.12324 | 35000 ft | 457 kts | 78° |
| 2026-05-07 09:43 | 65.04490 | 47.26998 | 35000 ft | 454 kts | 78° |
| 2026-05-07 09:44 | 65.05795 | 47.41626 | 34999 ft | 452 kts | 78° |
| 2026-05-07 09:44 | 65.07079 | 47.56194 | 34999 ft | 451 kts | 78° |
| 2026-05-07 09:45 | 65.08344 | 47.70720 | 34999 ft | 449 kts | 78° |
| 2026-05-07 09:45 | 65.09664 | 47.85171 | 35000 ft | 447 kts | 77° |
| 2026-05-07 09:46 | 65.11054 | 47.99538 | 35000 ft | 445 kts | 77° |
| 2026-05-07 09:46 | 65.12425 | 48.13777 | 35000 ft | 444 kts | 77° |
| 2026-05-07 09:47 | 65.13775 | 48.28071 | 35000 ft | 442 kts | 77° |
| 2026-05-07 09:47 | 65.15100 | 48.42326 | 34999 ft | 441 kts | 78° |
| 2026-05-07 09:48 | 65.16407 | 48.56566 | 34999 ft | 440 kts | 78° |
| 2026-05-07 09:48 | 65.17696 | 48.70773 | 35000 ft | 438 kts | 78° |
| 2026-05-07 09:49 | 65.18960 | 48.84851 | 35000 ft | 437 kts | 78° |
| 2026-05-07 09:49 | 65.20217 | 48.99017 | 35000 ft | 436 kts | 78° |
| 2026-05-07 09:49 | 65.20839 | 49.06087 | 36716 ft | 439 kts | 77° |
| 2026-05-07 09:50 | 65.21470 | 49.13289 | 36462 ft | 449 kts | 77° |
| 2026-05-07 09:50 | 65.22111 | 49.20666 | 36226 ft | 459 kts | 77° |
| 2026-05-07 09:50 | 65.22762 | 49.28196 | 35997 ft | 469 kts | 77° |
| 2026-05-07 09:50 | 65.23422 | 49.35894 | 35777 ft | 479 kts | 77° |
| 2026-05-07 09:51 | 65.24093 | 49.43765 | 35574 ft | 489 kts | 77° |
| 2026-05-07 09:51 | 65.24774 | 49.51811 | 35351 ft | 500 kts | 77° |
| 2026-05-07 09:51 | 65.25464 | 49.60030 | 35133 ft | 510 kts | 77° |
| 2026-05-07 09:52 | 65.26852 | 49.76747 | 35072 ft | 522 kts | 77° |
| 2026-05-07 09:52 | 65.28258 | 49.93933 | 35077 ft | 532 kts | 77° |
| 2026-05-07 09:53 | 65.29670 | 50.11446 | 35067 ft | 540 kts | 78° |
| 2026-05-07 09:53 | 65.31022 | 50.29163 | 35052 ft | 542 kts | 78° |
| 2026-05-07 09:54 | 65.32312 | 50.46948 | 35059 ft | 542 kts | 79° |
| 2026-05-07 09:54 | 65.33581 | 50.64760 | 35050 ft | 541 kts | 79° |
| 2026-05-07 09:55 | 65.34826 | 50.82433 | 35056 ft | 541 kts | 79° |
| 2026-05-07 09:55 | 65.36061 | 51.00234 | 35057 ft | 542 kts | 79° |
| 2026-05-07 09:56 | 65.37277 | 51.18078 | 35047 ft | 542 kts | 79° |
| 2026-05-07 09:56 | 65.38472 | 51.35937 | 35052 ft | 541 kts | 79° |
| 2026-05-07 09:57 | 65.39644 | 51.53787 | 35045 ft | 540 kts | 80° |
| 2026-05-07 09:57 | 65.40790 | 51.71593 | 35046 ft | 540 kts | 80° |
| 2026-05-07 09:58 | 65.41909 | 51.89325 | 35042 ft | 540 kts | 80° |
| 2026-05-07 09:58 | 65.43015 | 52.07201 | 35047 ft | 541 kts | 80° |
| 2026-05-07 09:59 | 65.44097 | 52.25148 | 35059 ft | 542 kts | 81° |
| 2026-05-07 09:59 | 65.45115 | 52.43092 | 35036 ft | 541 kts | 81° |
| 2026-05-07 10:00 | 65.46099 | 52.61030 | 35036 ft | 541 kts | 81° |
| 2026-05-07 10:00 | 65.47058 | 52.78867 | 35037 ft | 541 kts | 81° |
| 2026-05-07 10:01 | 65.48006 | 52.96823 | 35035 ft | 541 kts | 82° |
| 2026-05-07 10:01 | 65.48935 | 53.14809 | 35032 ft | 541 kts | 82° |
| 2026-05-07 10:02 | 65.49842 | 53.32795 | 35031 ft | 541 kts | 82° |
| 2026-05-07 10:02 | 65.50731 | 53.50802 | 35027 ft | 541 kts | 82° |
| 2026-05-07 10:03 | 65.51648 | 53.68823 | 35011 ft | 541 kts | 82° |
| 2026-05-07 10:03 | 65.52568 | 53.86872 | 35025 ft | 543 kts | 82° |
| 2026-05-07 10:04 | 65.53459 | 54.04832 | 35018 ft | 543 kts | 82° |
| 2026-05-07 10:04 | 65.54330 | 54.22928 | 35017 ft | 542 kts | 82° |
| 2026-05-07 10:05 | 65.55176 | 54.40995 | 35016 ft | 541 kts | 82° |
| 2026-05-07 10:05 | 65.56000 | 54.59066 | 35018 ft | 541 kts | 83° |
| 2026-05-07 10:06 | 65.56802 | 54.77159 | 35017 ft | 541 kts | 83° |
| 2026-05-07 10:06 | 65.57584 | 54.95270 | 35031 ft | 541 kts | 83° |
| 2026-05-07 10:07 | 65.58344 | 55.13378 | 35025 ft | 541 kts | 83° |
| 2026-05-07 10:07 | 65.59082 | 55.31491 | 35012 ft | 540 kts | 83° |
| 2026-05-07 10:08 | 65.59793 | 55.49475 | 35016 ft | 541 kts | 84° |
| 2026-05-07 10:08 | 65.60488 | 55.67618 | 35002 ft | 542 kts | 84° |
| 2026-05-07 10:09 | 65.61162 | 55.85778 | 35002 ft | 542 kts | 84° |
| 2026-05-07 10:09 | 65.61816 | 56.03984 | 35037 ft | 542 kts | 84° |
| 2026-05-07 10:10 | 65.62448 | 56.22183 | 35001 ft | 540 kts | 84° |
| 2026-05-07 10:10 | 65.63050 | 56.40183 | 34993 ft | 540 kts | 84° |
| 2026-05-07 10:11 | 65.63636 | 56.58329 | 34993 ft | 540 kts | 85° |
| 2026-05-07 10:11 | 65.64200 | 56.76481 | 34993 ft | 540 kts | 85° |
| 2026-05-07 10:12 | 65.64743 | 56.94640 | 34990 ft | 540 kts | 85° |
| 2026-05-07 10:12 | 65.65265 | 57.12827 | 34948 ft | 539 kts | 85° |
| 2026-05-07 10:13 | 65.65759 | 57.30844 | 34982 ft | 540 kts | 85° |
| 2026-05-07 10:13 | 65.66236 | 57.49001 | 34983 ft | 540 kts | 86° |
| 2026-05-07 10:14 | 65.66693 | 57.67198 | 34973 ft | 540 kts | 86° |
| 2026-05-07 10:14 | 65.67127 | 57.85395 | 34973 ft | 540 kts | 86° |
| 2026-05-07 10:15 | 65.67540 | 58.03566 | 34972 ft | 539 kts | 86° |
| 2026-05-07 10:15 | 65.67737 | 58.12647 | 35147 ft | 538 kts | 86° |
| 2026-05-07 10:15 | 65.67929 | 58.21692 | 35423 ft | 536 kts | 86° |
| 2026-05-07 10:15 | 65.68114 | 58.30704 | 35649 ft | 534 kts | 87° |
| 2026-05-07 10:16 | 65.68292 | 58.39610 | 35820 ft | 534 kts | 87° |
| 2026-05-07 10:16 | 65.68469 | 58.48730 | 36011 ft | 534 kts | 87° |
| 2026-05-07 10:16 | 65.68636 | 58.57618 | 36161 ft | 534 kts | 87° |
| 2026-05-07 10:16 | 65.68801 | 58.66630 | 36315 ft | 534 kts | 87° |
| 2026-05-07 10:17 | 65.68959 | 58.75630 | 36452 ft | 534 kts | 87° |
| 2026-05-07 10:17 | 65.69113 | 58.84645 | 36608 ft | 534 kts | 87° |
| 2026-05-07 10:17 | 65.69261 | 58.93664 | 36735 ft | 535 kts | 88° |
| 2026-05-07 10:17 | 65.69405 | 59.02697 | 36850 ft | 535 kts | 88° |
| 2026-05-07 10:18 | 65.69543 | 59.11741 | 36943 ft | 537 kts | 88° |
| 2026-05-07 10:18 | 65.69803 | 59.29850 | 36952 ft | 537 kts | 88° |
| 2026-05-07 10:19 | 65.70042 | 59.47962 | 36944 ft | 536 kts | 88° |
| 2026-05-07 10:19 | 65.70259 | 59.66092 | 36944 ft | 536 kts | 88° |
| 2026-05-07 10:20 | 65.70455 | 59.84221 | 36941 ft | 536 kts | 88° |
| 2026-05-07 10:20 | 65.70629 | 60.02255 | 36931 ft | 537 kts | 89° |
| 2026-05-07 10:21 | 65.70782 | 60.20363 | 36933 ft | 537 kts | 89° |
| 2026-05-07 10:21 | 65.70913 | 60.38518 | 36925 ft | 537 kts | 89° |
| 2026-05-07 10:22 | 65.71023 | 60.56663 | 36929 ft | 537 kts | 89° |
| 2026-05-07 10:22 | 65.71111 | 60.74672 | 36920 ft | 537 kts | 89° |
| 2026-05-07 10:23 | 65.71178 | 60.92796 | 36918 ft | 536 kts | 89° |
| 2026-05-07 10:23 | 65.71224 | 61.10889 | 36912 ft | 534 kts | 90° |
| 2026-05-07 10:24 | 65.71248 | 61.28941 | 36910 ft | 534 kts | 90° |
| 2026-05-07 10:24 | 65.71251 | 61.43953 | 36906 ft | 534 kts | 90° |
| 2026-05-07 10:25 | 65.71236 | 61.62012 | 36907 ft | 534 kts | 90° |
| 2026-05-07 10:25 | 65.71200 | 61.80109 | 36918 ft | 534 kts | 90° |
| 2026-05-07 10:26 | 65.71143 | 61.98142 | 36897 ft | 533 kts | 90° |
| 2026-05-07 10:26 | 65.71156 | 62.16143 | 36901 ft | 532 kts | 88° |
| 2026-05-07 10:27 | 65.71490 | 62.34100 | 36894 ft | 532 kts | 86° |
| 2026-05-07 10:27 | 65.71876 | 62.51930 | 36890 ft | 532 kts | 87° |
| 2026-05-07 10:28 | 65.72215 | 62.69880 | 36888 ft | 532 kts | 88° |
| 2026-05-07 10:28 | 65.72506 | 62.87858 | 36886 ft | 532 kts | 88° |
| 2026-05-07 10:29 | 65.72766 | 63.05842 | 36883 ft | 532 kts | 88° |
| 2026-05-07 10:29 | 65.73006 | 63.23827 | 36884 ft | 532 kts | 88° |
| 2026-05-07 10:30 | 65.73326 | 63.50663 | 36887 ft | 532 kts | 88° |
| 2026-05-07 10:30 | 65.73515 | 63.68637 | 36878 ft | 531 kts | 89° |
| 2026-05-07 10:31 | 65.73682 | 63.86561 | 36881 ft | 529 kts | 89° |
| 2026-05-07 10:31 | 65.73828 | 64.04468 | 36874 ft | 529 kts | 89° |
| 2026-05-07 10:32 | 65.73953 | 64.22370 | 36879 ft | 529 kts | 89° |
| 2026-05-07 10:32 | 65.74057 | 64.40265 | 36879 ft | 529 kts | 89° |
| 2026-05-07 10:33 | 65.74143 | 64.58164 | 36865 ft | 530 kts | 89° |
| 2026-05-07 10:33 | 65.74231 | 64.76140 | 36867 ft | 532 kts | 89° |
| 2026-05-07 10:34 | 65.74305 | 64.94034 | 36859 ft | 532 kts | 90° |
| 2026-05-07 10:34 | 65.74356 | 65.12051 | 36859 ft | 532 kts | 90° |
| 2026-05-07 10:35 | 65.74385 | 65.30060 | 36851 ft | 532 kts | 90° |
| 2026-05-07 10:35 | 65.74391 | 65.48060 | 36851 ft | 532 kts | 90° |
| 2026-05-07 10:36 | 65.74377 | 65.66054 | 36839 ft | 532 kts | 90° |
| 2026-05-07 10:36 | 65.74341 | 65.84043 | 36836 ft | 532 kts | 91° |
| 2026-05-07 10:37 | 65.74285 | 66.02027 | 36827 ft | 532 kts | 91° |
| 2026-05-07 10:37 | 65.74211 | 66.20009 | 36834 ft | 532 kts | 91° |
| 2026-05-07 10:38 | 65.74122 | 66.37985 | 36814 ft | 532 kts | 91° |
| 2026-05-07 10:38 | 65.74013 | 66.55880 | 36797 ft | 532 kts | 91° |
| 2026-05-07 10:39 | 65.73876 | 66.75377 | 36804 ft | 533 kts | 91° |
| 2026-05-07 10:39 | 65.73738 | 66.93286 | 36805 ft | 533 kts | 91° |
| 2026-05-07 10:40 | 65.73579 | 67.11314 | 36796 ft | 533 kts | 92° |
| 2026-05-07 10:40 | 65.73399 | 67.29310 | 36796 ft | 533 kts | 92° |
| 2026-05-07 10:41 | 65.73210 | 67.47316 | 36786 ft | 532 kts | 92° |
| 2026-05-07 10:41 | 65.73011 | 67.65289 | 36785 ft | 531 kts | 92° |
| 2026-05-07 10:42 | 65.72790 | 67.83231 | 36774 ft | 531 kts | 92° |
| 2026-05-07 10:42 | 65.72547 | 68.01171 | 36774 ft | 531 kts | 92° |
| 2026-05-07 10:43 | 65.72282 | 68.19118 | 36763 ft | 531 kts | 93° |
| 2026-05-07 10:43 | 65.71997 | 68.37049 | 36767 ft | 531 kts | 93° |
| 2026-05-07 10:44 | 65.71691 | 68.54965 | 36759 ft | 530 kts | 93° |
| 2026-05-07 10:44 | 65.71363 | 68.72888 | 36758 ft | 531 kts | 94° |
| 2026-05-07 10:45 | 65.71013 | 68.90839 | 36751 ft | 532 kts | 94° |
| 2026-05-07 10:45 | 65.70707 | 69.05745 | 36751 ft | 532 kts | 94° |
| 2026-05-07 10:46 | 65.70254 | 69.26606 | 36748 ft | 532 kts | 94° |
| 2026-05-07 10:46 | 65.69911 | 69.41623 | 36745 ft | 531 kts | 94° |
| 2026-05-07 10:47 | 65.69484 | 69.59429 | 36746 ft | 531 kts | 95° |
| 2026-05-07 10:47 | 65.69032 | 69.77345 | 36739 ft | 531 kts | 95° |
| 2026-05-07 10:48 | 65.68560 | 69.95271 | 36737 ft | 531 kts | 95° |
| 2026-05-07 10:48 | 65.68068 | 70.13157 | 36733 ft | 531 kts | 95° |
| 2026-05-07 10:49 | 65.67556 | 70.31030 | 36732 ft | 531 kts | 95° |
| 2026-05-07 10:49 | 65.67022 | 70.48886 | 36726 ft | 530 kts | 96° |
| 2026-05-07 10:50 | 65.66046 | 70.66484 | 36699 ft | 528 kts | 102° |
| 2026-05-07 10:50 | 65.64674 | 70.84003 | 36715 ft | 529 kts | 103° |
| 2026-05-07 10:51 | 65.63215 | 71.01475 | 36725 ft | 529 kts | 104° |
| 2026-05-07 10:51 | 65.61735 | 71.18929 | 36719 ft | 529 kts | 104° |
| 2026-05-07 10:52 | 65.60248 | 71.36343 | 36715 ft | 528 kts | 104° |
| 2026-05-07 10:52 | 65.58747 | 71.53719 | 36705 ft | 527 kts | 104° |
| 2026-05-07 10:53 | 65.57231 | 71.71071 | 36707 ft | 527 kts | 104° |
| 2026-05-07 10:53 | 65.55709 | 71.88325 | 36709 ft | 527 kts | 104° |
| 2026-05-07 10:54 | 65.54162 | 72.05649 | 36689 ft | 527 kts | 104° |
| 2026-05-07 10:54 | 65.52594 | 72.22949 | 36661 ft | 527 kts | 105° |
| 2026-05-07 10:55 | 65.51006 | 72.40233 | 36686 ft | 528 kts | 105° |
| 2026-05-07 10:55 | 65.49405 | 72.57416 | 36685 ft | 528 kts | 105° |
| 2026-05-07 10:56 | 65.47779 | 72.74676 | 36687 ft | 529 kts | 105° |
| 2026-05-07 10:56 | 65.46148 | 72.91939 | 36685 ft | 528 kts | 105° |
| 2026-05-07 10:57 | 65.44502 | 73.09184 | 36674 ft | 528 kts | 105° |
| 2026-05-07 10:57 | 65.42841 | 73.26352 | 36670 ft | 526 kts | 106° |
| 2026-05-07 10:58 | 65.41162 | 73.43466 | 36656 ft | 526 kts | 106° |
| 2026-05-07 10:58 | 65.39474 | 73.60441 | 36656 ft | 526 kts | 106° |
| 2026-05-07 10:59 | 65.37758 | 73.77515 | 36611 ft | 526 kts | 106° |
| 2026-05-07 10:59 | 65.36039 | 73.94581 | 36639 ft | 527 kts | 106° |
| 2026-05-07 11:00 | 65.34306 | 74.11656 | 36640 ft | 525 kts | 107° |
| 2026-05-07 11:00 | 65.32572 | 74.28514 | 36625 ft | 524 kts | 107° |
| 2026-05-07 11:01 | 65.30809 | 74.45434 | 36623 ft | 524 kts | 107° |
| 2026-05-07 11:01 | 65.29025 | 74.62333 | 36599 ft | 524 kts | 107° |
| 2026-05-07 11:02 | 65.27220 | 74.79238 | 36602 ft | 524 kts | 107° |
| 2026-05-07 11:02 | 65.25399 | 74.96095 | 36578 ft | 524 kts | 108° |
| 2026-05-07 11:03 | 65.23571 | 75.12815 | 36577 ft | 523 kts | 108° |
| 2026-05-07 11:03 | 65.21717 | 75.29593 | 36557 ft | 523 kts | 108° |
| 2026-05-07 11:04 | 65.19843 | 75.46352 | 36556 ft | 523 kts | 108° |
| 2026-05-07 11:04 | 65.17950 | 75.63086 | 36553 ft | 523 kts | 109° |
| 2026-05-07 11:05 | 65.16036 | 75.79820 | 36528 ft | 523 kts | 109° |
| 2026-05-07 11:05 | 65.14114 | 75.96436 | 36528 ft | 524 kts | 109° |
| 2026-05-07 11:06 | 65.12164 | 76.13109 | 36492 ft | 524 kts | 109° |
| 2026-05-07 11:06 | 65.10190 | 76.29806 | 36496 ft | 524 kts | 110° |
| 2026-05-07 11:07 | 65.08203 | 76.46440 | 36464 ft | 524 kts | 110° |
| 2026-05-07 11:07 | 65.06197 | 76.63041 | 36465 ft | 524 kts | 110° |
| 2026-05-07 11:08 | 65.04171 | 76.79639 | 36430 ft | 524 kts | 110° |
| 2026-05-07 11:08 | 65.02129 | 76.96190 | 36430 ft | 524 kts | 110° |
| 2026-05-07 11:09 | 65.00073 | 77.12717 | 36406 ft | 524 kts | 111° |
| 2026-05-07 11:09 | 64.98016 | 77.29122 | 36406 ft | 523 kts | 111° |
| 2026-05-07 11:10 | 64.95927 | 77.45600 | 36417 ft | 523 kts | 111° |
| 2026-05-07 11:10 | 64.93819 | 77.62068 | 36368 ft | 523 kts | 111° |
| 2026-05-07 11:11 | 64.91582 | 77.78272 | 36378 ft | 519 kts | 118° |
| 2026-05-07 11:11 | 64.88655 | 77.93786 | 36339 ft | 517 kts | 120° |
| 2026-05-07 11:12 | 64.85573 | 78.09124 | 36353 ft | 517 kts | 121° |
| 2026-05-07 11:12 | 64.82478 | 78.24277 | 36331 ft | 517 kts | 121° |
| 2026-05-07 11:13 | 64.79353 | 78.39522 | 36337 ft | 517 kts | 121° |
| 2026-05-07 11:13 | 64.76231 | 78.54704 | 36322 ft | 517 kts | 121° |
| 2026-05-07 11:14 | 64.73110 | 78.69862 | 36317 ft | 516 kts | 121° |
| 2026-05-07 11:14 | 64.69983 | 78.84987 | 36318 ft | 515 kts | 121° |
| 2026-05-07 11:15 | 64.66849 | 79.00033 | 36297 ft | 515 kts | 121° |
| 2026-05-07 11:15 | 64.63718 | 79.14949 | 36298 ft | 515 kts | 121° |
| 2026-05-07 11:16 | 64.60550 | 79.29931 | 36294 ft | 514 kts | 121° |
| 2026-05-07 11:16 | 64.57366 | 79.44881 | 36289 ft | 515 kts | 121° |
| 2026-05-07 11:17 | 64.54183 | 79.59719 | 36291 ft | 515 kts | 121° |
| 2026-05-07 11:17 | 64.50969 | 79.74606 | 36281 ft | 515 kts | 121° |
| 2026-05-07 11:18 | 64.47742 | 79.89443 | 36295 ft | 515 kts | 122° |
| 2026-05-07 11:18 | 64.44497 | 80.04259 | 36295 ft | 514 kts | 122° |
| 2026-05-07 11:19 | 64.41262 | 80.18927 | 36287 ft | 514 kts | 122° |
| 2026-05-07 11:19 | 64.37992 | 80.33652 | 36298 ft | 514 kts | 122° |
| 2026-05-07 11:20 | 64.34712 | 80.48323 | 36279 ft | 515 kts | 122° |
| 2026-05-07 11:20 | 64.31403 | 80.63016 | 36292 ft | 516 kts | 122° |
| 2026-05-07 11:21 | 64.28103 | 80.77579 | 36308 ft | 516 kts | 122° |
| 2026-05-07 11:21 | 64.24762 | 80.92218 | 36298 ft | 516 kts | 122° |
| 2026-05-07 11:22 | 64.21409 | 81.06811 | 36297 ft | 516 kts | 122° |
| 2026-05-07 11:22 | 64.18041 | 81.21373 | 36305 ft | 516 kts | 122° |
| 2026-05-07 11:23 | 64.14670 | 81.35902 | 36308 ft | 516 kts | 122° |
| 2026-05-07 11:23 | 64.11292 | 81.50405 | 36310 ft | 516 kts | 123° |
| 2026-05-07 11:24 | 64.07925 | 81.64769 | 36315 ft | 515 kts | 123° |
| 2026-05-07 11:24 | 64.04518 | 81.79196 | 36317 ft | 515 kts | 123° |
| 2026-05-07 11:25 | 64.01105 | 81.93557 | 36325 ft | 515 kts | 123° |
| 2026-05-07 11:25 | 63.97640 | 82.07863 | 36326 ft | 514 kts | 125° |
| 2026-05-07 11:26 | 63.93928 | 82.21736 | 36308 ft | 512 kts | 127° |
| 2026-05-07 11:26 | 63.90134 | 82.35405 | 36320 ft | 511 kts | 127° |
| 2026-05-07 11:27 | 63.86338 | 82.49067 | 36319 ft | 511 kts | 127° |
| 2026-05-07 11:27 | 63.82567 | 82.62663 | 36326 ft | 512 kts | 127° |
| 2026-05-07 11:28 | 63.78776 | 82.76294 | 36317 ft | 511 kts | 127° |
| 2026-05-07 11:28 | 63.74975 | 82.89901 | 36336 ft | 512 kts | 127° |
| 2026-05-07 11:29 | 63.71171 | 83.03467 | 36311 ft | 511 kts | 127° |
| 2026-05-07 11:29 | 63.67349 | 83.17023 | 36342 ft | 512 kts | 127° |
| 2026-05-07 11:30 | 63.63510 | 83.30547 | 36347 ft | 512 kts | 127° |
| 2026-05-07 11:30 | 63.59683 | 83.43949 | 36334 ft | 512 kts | 127° |
| 2026-05-07 11:31 | 63.55825 | 83.57381 | 36363 ft | 512 kts | 127° |
| 2026-05-07 11:31 | 63.51955 | 83.70772 | 36365 ft | 511 kts | 127° |
| 2026-05-07 11:32 | 63.46783 | 83.88545 | 36374 ft | 511 kts | 127° |
| 2026-05-07 11:33 | 63.42890 | 84.01831 | 36382 ft | 510 kts | 127° |
| 2026-05-07 11:33 | 63.38989 | 84.15067 | 36383 ft | 510 kts | 127° |
| 2026-05-07 11:34 | 63.35075 | 84.28272 | 36398 ft | 510 kts | 127° |
| 2026-05-07 11:34 | 63.31154 | 84.41419 | 36371 ft | 510 kts | 127° |
| 2026-05-07 11:35 | 63.27222 | 84.54530 | 36406 ft | 509 kts | 127° |
| 2026-05-07 11:35 | 63.23276 | 84.67608 | 36407 ft | 509 kts | 128° |
| 2026-05-07 11:36 | 63.19312 | 84.80630 | 36413 ft | 509 kts | 128° |
| 2026-05-07 11:36 | 63.15354 | 84.93554 | 36433 ft | 510 kts | 128° |
| 2026-05-07 11:37 | 63.11362 | 85.06514 | 36445 ft | 510 kts | 128° |
| 2026-05-07 11:37 | 63.07358 | 85.19446 | 36437 ft | 509 kts | 128° |
| 2026-05-07 11:38 | 63.03349 | 85.32317 | 36458 ft | 509 kts | 128° |
| 2026-05-07 11:38 | 62.99322 | 85.45175 | 36461 ft | 509 kts | 128° |
| 2026-05-07 11:39 | 62.95283 | 85.57998 | 36471 ft | 509 kts | 128° |
| 2026-05-07 11:39 | 62.91246 | 85.70746 | 36483 ft | 508 kts | 128° |
| 2026-05-07 11:40 | 62.87217 | 85.83395 | 36492 ft | 508 kts | 128° |
| 2026-05-07 11:40 | 62.83159 | 85.96065 | 36492 ft | 508 kts | 128° |
| 2026-05-07 11:41 | 62.79087 | 86.08708 | 36506 ft | 508 kts | 128° |
| 2026-05-07 11:41 | 62.75013 | 86.21287 | 36509 ft | 507 kts | 128° |
| 2026-05-07 11:42 | 62.70920 | 86.33857 | 36527 ft | 506 kts | 128° |
| 2026-05-07 11:42 | 62.66842 | 86.46313 | 36531 ft | 504 kts | 128° |
| 2026-05-07 11:43 | 62.62779 | 86.58652 | 36531 ft | 504 kts | 128° |
| 2026-05-07 11:43 | 62.58678 | 86.71040 | 36542 ft | 504 kts | 128° |
| 2026-05-07 11:44 | 62.54572 | 86.83376 | 36551 ft | 504 kts | 128° |
| 2026-05-07 11:44 | 62.50449 | 86.95697 | 36551 ft | 504 kts | 129° |
| 2026-05-07 11:45 | 62.46341 | 87.07910 | 36569 ft | 504 kts | 128° |
| 2026-05-07 11:45 | 62.42207 | 87.20132 | 36571 ft | 503 kts | 129° |
| 2026-05-07 11:46 | 62.38065 | 87.32313 | 36572 ft | 503 kts | 129° |
| 2026-05-07 11:46 | 62.33911 | 87.44464 | 36594 ft | 503 kts | 129° |
| 2026-05-07 11:47 | 62.29748 | 87.56578 | 36593 ft | 503 kts | 129° |
| 2026-05-07 11:47 | 62.25575 | 87.68711 | 36615 ft | 504 kts | 126° |
| 2026-05-07 11:48 | 62.21920 | 87.81465 | 36610 ft | 506 kts | 122° |
| 2026-05-07 11:48 | 62.18385 | 87.94494 | 36613 ft | 505 kts | 122° |
| 2026-05-07 11:49 | 62.14874 | 88.07511 | 36632 ft | 505 kts | 122° |
| 2026-05-07 11:49 | 62.11343 | 88.20493 | 36634 ft | 505 kts | 122° |
| 2026-05-07 11:50 | 62.07793 | 88.33425 | 36643 ft | 505 kts | 122° |
| 2026-05-07 11:50 | 62.04222 | 88.46345 | 36643 ft | 505 kts | 122° |
| 2026-05-07 11:51 | 62.00646 | 88.59212 | 36659 ft | 505 kts | 122° |
| 2026-05-07 11:51 | 61.97074 | 88.71991 | 36655 ft | 505 kts | 122° |
| 2026-05-07 11:52 | 61.93467 | 88.84823 | 36654 ft | 505 kts | 122° |
| 2026-05-07 11:52 | 61.89854 | 88.97604 | 36675 ft | 505 kts | 122° |
| 2026-05-07 11:53 | 61.86232 | 89.10347 | 36678 ft | 504 kts | 122° |
| 2026-05-07 11:53 | 61.82598 | 89.23073 | 36691 ft | 504 kts | 122° |
| 2026-05-07 11:54 | 61.78965 | 89.35767 | 36698 ft | 504 kts | 122° |
| 2026-05-07 11:54 | 61.75324 | 89.48433 | 36707 ft | 504 kts | 123° |
| 2026-05-07 11:55 | 61.71670 | 89.61072 | 36707 ft | 504 kts | 123° |
| 2026-05-07 11:55 | 61.68029 | 89.73591 | 36716 ft | 504 kts | 123° |
| 2026-05-07 11:56 | 61.64343 | 89.86196 | 36716 ft | 504 kts | 123° |
| 2026-05-07 11:56 | 61.60645 | 89.98735 | 36728 ft | 504 kts | 125° |
| 2026-05-07 11:57 | 61.56565 | 90.10517 | 36748 ft | 501 kts | 128° |
| 2026-05-07 11:57 | 61.52335 | 90.22136 | 36728 ft | 501 kts | 129° |
| 2026-05-07 11:58 | 61.48068 | 90.33696 | 36750 ft | 501 kts | 129° |
| 2026-05-07 11:58 | 61.43795 | 90.45233 | 36757 ft | 501 kts | 129° |
| 2026-05-07 11:59 | 61.39526 | 90.56732 | 36745 ft | 501 kts | 129° |
| 2026-05-07 11:59 | 61.35246 | 90.68211 | 36744 ft | 501 kts | 129° |
| 2026-05-07 12:00 | 61.30961 | 90.79660 | 36766 ft | 500 kts | 129° |
| 2026-05-07 12:00 | 61.26687 | 90.91050 | 36771 ft | 499 kts | 129° |
| 2026-05-07 12:01 | 61.22407 | 91.02405 | 36770 ft | 499 kts | 129° |
| 2026-05-07 12:01 | 61.18147 | 91.13649 | 36790 ft | 499 kts | 129° |
| 2026-05-07 12:02 | 61.13846 | 91.24944 | 36789 ft | 499 kts | 129° |
| 2026-05-07 12:02 | 61.09534 | 91.36212 | 36789 ft | 499 kts | 129° |
| 2026-05-07 12:03 | 61.05217 | 91.47436 | 36796 ft | 498 kts | 129° |
| 2026-05-07 12:03 | 61.00898 | 91.58610 | 36793 ft | 498 kts | 129° |
| 2026-05-07 12:04 | 60.96590 | 91.69703 | 36814 ft | 498 kts | 129° |
| 2026-05-07 12:04 | 60.92256 | 91.80812 | 36816 ft | 498 kts | 129° |
| 2026-05-07 12:05 | 60.87908 | 91.91899 | 36819 ft | 498 kts | 130° |
| 2026-05-07 12:05 | 60.83549 | 92.02965 | 36821 ft | 498 kts | 130° |
| 2026-05-07 12:06 | 60.79184 | 92.13990 | 36828 ft | 497 kts | 130° |
| 2026-05-07 12:06 | 60.74827 | 92.24944 | 36827 ft | 496 kts | 130° |
| 2026-05-07 12:07 | 60.70457 | 92.35878 | 36833 ft | 496 kts | 130° |
| 2026-05-07 12:07 | 60.66086 | 92.46774 | 36840 ft | 496 kts | 130° |
| 2026-05-07 12:08 | 60.61706 | 92.57652 | 36838 ft | 496 kts | 130° |
| 2026-05-07 12:08 | 60.57316 | 92.68506 | 36846 ft | 496 kts | 130° |
| 2026-05-07 12:09 | 60.52914 | 92.79335 | 36850 ft | 496 kts | 130° |
| 2026-05-07 12:09 | 60.48509 | 92.90122 | 36856 ft | 496 kts | 130° |
| 2026-05-07 12:10 | 60.44102 | 93.00860 | 36862 ft | 496 kts | 130° |
| 2026-05-07 12:10 | 60.39693 | 93.11497 | 36862 ft | 496 kts | 131° |
| 2026-05-07 12:11 | 60.35209 | 93.22101 | 36867 ft | 496 kts | 131° |
| 2026-05-07 12:11 | 60.30709 | 93.32663 | 36871 ft | 496 kts | 131° |
| 2026-05-07 12:12 | 60.26205 | 93.43202 | 36875 ft | 495 kts | 131° |
| 2026-05-07 12:12 | 60.21703 | 93.53697 | 36878 ft | 495 kts | 131° |
| 2026-05-07 12:13 | 60.17219 | 93.64110 | 36879 ft | 495 kts | 131° |
| 2026-05-07 12:13 | 60.12696 | 93.74563 | 36880 ft | 495 kts | 131° |
| 2026-05-07 12:14 | 60.08172 | 93.84977 | 36884 ft | 495 kts | 131° |
| 2026-05-07 12:14 | 60.03642 | 93.95363 | 36885 ft | 495 kts | 131° |
| 2026-05-07 12:15 | 59.99102 | 94.05725 | 36889 ft | 495 kts | 131° |
| 2026-05-07 12:15 | 59.94535 | 94.16012 | 36889 ft | 494 kts | 132° |
| 2026-05-07 12:16 | 59.89937 | 94.26085 | 36884 ft | 494 kts | 133° |
| 2026-05-07 12:16 | 59.85286 | 94.36188 | 36893 ft | 494 kts | 133° |
| 2026-05-07 12:17 | 59.81418 | 94.44575 | 36890 ft | 494 kts | 133° |
| 2026-05-07 12:17 | 59.76762 | 94.54643 | 36889 ft | 494 kts | 133° |
| 2026-05-07 12:18 | 59.72103 | 94.64678 | 36896 ft | 494 kts | 133° |
| 2026-05-07 12:18 | 59.67440 | 94.74681 | 36899 ft | 494 kts | 133° |
| 2026-05-07 12:19 | 59.62762 | 94.84669 | 36900 ft | 494 kts | 133° |
| 2026-05-07 12:19 | 59.58132 | 94.94593 | 36904 ft | 494 kts | 132° |
| 2026-05-07 12:20 | 59.53549 | 95.04711 | 36907 ft | 494 kts | 132° |
| 2026-05-07 12:20 | 59.48991 | 95.14817 | 36905 ft | 494 kts | 132° |
| 2026-05-07 12:21 | 59.44409 | 95.24902 | 36912 ft | 494 kts | 132° |
| 2026-05-07 12:21 | 59.39812 | 95.34934 | 36906 ft | 494 kts | 132° |
| 2026-05-07 12:22 | 59.35224 | 95.44874 | 36916 ft | 494 kts | 133° |
| 2026-05-07 12:22 | 59.30607 | 95.54835 | 36910 ft | 494 kts | 133° |
| 2026-05-07 12:23 | 59.25982 | 95.64771 | 36915 ft | 494 kts | 133° |
| 2026-05-07 12:23 | 59.21273 | 95.74544 | 36916 ft | 494 kts | 134° |
| 2026-05-07 12:24 | 59.16463 | 95.84121 | 36920 ft | 494 kts | 135° |
| 2026-05-07 12:24 | 59.11676 | 95.93583 | 36917 ft | 494 kts | 135° |
| 2026-05-07 12:25 | 59.06858 | 96.03111 | 36917 ft | 494 kts | 135° |
| 2026-05-07 12:25 | 59.02042 | 96.12620 | 36917 ft | 494 kts | 135° |
| 2026-05-07 12:26 | 58.97220 | 96.22109 | 36920 ft | 494 kts | 135° |
| 2026-05-07 12:26 | 58.92392 | 96.31568 | 36922 ft | 494 kts | 135° |
| 2026-05-07 12:27 | 58.87555 | 96.41001 | 36907 ft | 493 kts | 135° |
| 2026-05-07 12:27 | 58.82720 | 96.50392 | 36920 ft | 493 kts | 135° |
| 2026-05-07 12:28 | 58.77875 | 96.59763 | 36921 ft | 493 kts | 135° |
| 2026-05-07 12:28 | 58.73057 | 96.69041 | 36919 ft | 493 kts | 135° |
| 2026-05-07 12:29 | 58.68198 | 96.78361 | 36916 ft | 493 kts | 135° |
| 2026-05-07 12:29 | 58.63326 | 96.87666 | 36916 ft | 493 kts | 136° |
| 2026-05-07 12:30 | 58.58457 | 96.96929 | 36915 ft | 492 kts | 136° |
| 2026-05-07 12:30 | 58.53584 | 97.06178 | 36915 ft | 492 kts | 135° |
| 2026-05-07 12:31 | 58.48771 | 97.15502 | 36919 ft | 492 kts | 135° |
| 2026-05-07 12:31 | 58.44007 | 97.24790 | 36911 ft | 492 kts | 135° |
| 2026-05-07 12:32 | 58.39211 | 97.34095 | 36914 ft | 492 kts | 134° |
| 2026-05-07 12:32 | 58.34741 | 97.43975 | 36914 ft | 492 kts | 130° |
| 2026-05-07 12:33 | 58.28261 | 97.59143 | 36914 ft | 492 kts | 129° |
| 2026-05-07 12:33 | 58.23955 | 97.69241 | 36903 ft | 492 kts | 129° |
| 2026-05-07 12:34 | 58.19633 | 97.79309 | 36912 ft | 492 kts | 129° |
| 2026-05-07 12:34 | 58.15327 | 97.89281 | 36918 ft | 492 kts | 129° |
| 2026-05-07 12:35 | 58.10982 | 97.99291 | 36910 ft | 492 kts | 130° |
| 2026-05-07 12:35 | 58.06633 | 98.09268 | 36911 ft | 491 kts | 130° |
| 2026-05-07 12:36 | 58.02283 | 98.19208 | 36906 ft | 491 kts | 130° |
| 2026-05-07 12:36 | 57.97921 | 98.29134 | 36913 ft | 491 kts | 130° |
| 2026-05-07 12:37 | 57.93557 | 98.39024 | 36911 ft | 491 kts | 130° |
| 2026-05-07 12:37 | 57.89172 | 98.48918 | 36908 ft | 491 kts | 130° |
| 2026-05-07 12:38 | 57.84791 | 98.58765 | 36918 ft | 491 kts | 130° |
| 2026-05-07 12:38 | 57.80407 | 98.68575 | 36911 ft | 490 kts | 130° |
| 2026-05-07 12:39 | 57.76019 | 98.78353 | 36915 ft | 490 kts | 130° |
| 2026-05-07 12:39 | 57.71624 | 98.88107 | 36920 ft | 490 kts | 130° |
| 2026-05-07 12:40 | 57.67532 | 98.98266 | 36920 ft | 490 kts | 121° |
| 2026-05-07 12:40 | 57.64193 | 99.09264 | 36926 ft | 490 kts | 118° |
| 2026-05-07 12:41 | 57.60977 | 99.20481 | 36922 ft | 490 kts | 118° |
| 2026-05-07 12:41 | 57.57773 | 99.31687 | 36920 ft | 490 kts | 118° |
| 2026-05-07 12:42 | 57.54541 | 99.42864 | 36925 ft | 490 kts | 118° |
| 2026-05-07 12:42 | 57.51282 | 99.54030 | 36930 ft | 490 kts | 118° |
| 2026-05-07 12:43 | 57.48010 | 99.65173 | 36929 ft | 490 kts | 118° |
| 2026-05-07 12:43 | 57.44749 | 99.76227 | 36926 ft | 490 kts | 118° |
| 2026-05-07 12:44 | 57.41456 | 99.87344 | 36926 ft | 490 kts | 119° |
| 2026-05-07 12:44 | 57.38161 | 99.98410 | 36924 ft | 490 kts | 119° |
| 2026-05-07 12:45 | 57.34856 | 100.09461 | 36923 ft | 490 kts | 119° |
| 2026-05-07 12:45 | 57.31559 | 100.20433 | 36925 ft | 490 kts | 119° |
| 2026-05-07 12:46 | 57.28235 | 100.31443 | 36923 ft | 490 kts | 119° |
| 2026-05-07 12:46 | 57.24898 | 100.42442 | 36925 ft | 490 kts | 119° |
| 2026-05-07 12:47 | 57.21553 | 100.53418 | 36925 ft | 490 kts | 119° |
| 2026-05-07 12:47 | 57.18197 | 100.64377 | 36927 ft | 491 kts | 120° |
| 2026-05-07 12:48 | 57.14824 | 100.75342 | 36904 ft | 491 kts | 120° |
| 2026-05-07 12:48 | 57.11442 | 100.86284 | 36929 ft | 491 kts | 120° |
| 2026-05-07 12:49 | 57.08074 | 100.97132 | 36908 ft | 491 kts | 120° |
| 2026-05-07 12:49 | 57.04673 | 101.08031 | 36905 ft | 491 kts | 120° |
| 2026-05-07 12:50 | 57.01259 | 101.18924 | 36920 ft | 491 kts | 120° |
| 2026-05-07 12:50 | 56.97838 | 101.29788 | 36925 ft | 491 kts | 120° |
| 2026-05-07 12:51 | 56.94407 | 101.40636 | 36905 ft | 491 kts | 120° |
| 2026-05-07 12:51 | 56.90968 | 101.51456 | 36921 ft | 491 kts | 120° |
| 2026-05-07 12:52 | 56.87523 | 101.62248 | 36907 ft | 491 kts | 120° |
| 2026-05-07 12:52 | 56.84066 | 101.73028 | 36903 ft | 491 kts | 121° |
| 2026-05-07 12:53 | 56.80602 | 101.83785 | 36915 ft | 491 kts | 121° |
| 2026-05-07 12:53 | 56.77127 | 101.94522 | 36916 ft | 491 kts | 121° |
| 2026-05-07 12:54 | 56.73647 | 102.05235 | 36913 ft | 491 kts | 121° |
| 2026-05-07 12:54 | 56.70184 | 102.15871 | 36914 ft | 491 kts | 121° |
| 2026-05-07 12:55 | 56.66692 | 102.26555 | 36920 ft | 491 kts | 121° |
| 2026-05-07 12:55 | 56.63187 | 102.37226 | 36919 ft | 492 kts | 121° |
| 2026-05-07 12:56 | 56.59674 | 102.47874 | 36920 ft | 492 kts | 121° |
| 2026-05-07 12:56 | 56.56140 | 102.58540 | 36919 ft | 492 kts | 121° |
| 2026-05-07 12:57 | 56.52605 | 102.69162 | 36928 ft | 492 kts | 121° |
| 2026-05-07 12:57 | 56.49061 | 102.79759 | 36936 ft | 492 kts | 121° |
| 2026-05-07 12:58 | 56.45508 | 102.90340 | 36944 ft | 492 kts | 121° |
| 2026-05-07 12:58 | 56.41943 | 103.00910 | 36939 ft | 492 kts | 122° |
| 2026-05-07 12:59 | 56.38391 | 103.11393 | 36943 ft | 492 kts | 122° |
| 2026-05-07 12:59 | 56.34809 | 103.21922 | 36941 ft | 492 kts | 122° |
| 2026-05-07 13:00 | 56.31222 | 103.32419 | 36947 ft | 492 kts | 122° |
| 2026-05-07 13:00 | 56.27615 | 103.42928 | 36941 ft | 493 kts | 122° |
| 2026-05-07 13:01 | 56.24606 | 103.51657 | 36939 ft | 493 kts | 122° |
| 2026-05-07 13:01 | 56.20985 | 103.62124 | 36949 ft | 493 kts | 122° |
| 2026-05-07 13:02 | 56.18576 | 103.69062 | 37198 ft | 493 kts | 122° |
| 2026-05-07 13:02 | 56.16758 | 103.74283 | 37432 ft | 493 kts | 122° |
| 2026-05-07 13:02 | 56.15531 | 103.77801 | 37576 ft | 492 kts | 122° |
| 2026-05-07 13:02 | 56.13711 | 103.83012 | 37754 ft | 493 kts | 122° |
| 2026-05-07 13:03 | 56.11883 | 103.88234 | 37940 ft | 493 kts | 122° |
| 2026-05-07 13:03 | 56.10059 | 103.93432 | 38119 ft | 493 kts | 122° |
| 2026-05-07 13:03 | 56.08256 | 103.98560 | 38317 ft | 493 kts | 122° |
| 2026-05-07 13:03 | 56.06427 | 104.03751 | 38492 ft | 493 kts | 122° |
| 2026-05-07 13:04 | 56.04597 | 104.08933 | 38653 ft | 493 kts | 122° |
| 2026-05-07 13:04 | 56.02764 | 104.14111 | 38780 ft | 492 kts | 122° |
| 2026-05-07 13:04 | 56.00931 | 104.19281 | 38897 ft | 493 kts | 122° |
| 2026-05-07 13:04 | 55.99086 | 104.24472 | 38933 ft | 494 kts | 122° |
| 2026-05-07 13:05 | 55.95404 | 104.34801 | 38935 ft | 492 kts | 122° |
| 2026-05-07 13:05 | 55.91723 | 104.45083 | 38933 ft | 492 kts | 122° |
| 2026-05-07 13:06 | 55.88034 | 104.55352 | 38933 ft | 492 kts | 122° |
| 2026-05-07 13:06 | 55.84339 | 104.65600 | 38932 ft | 492 kts | 122° |
| 2026-05-07 13:07 | 55.80633 | 104.75835 | 38933 ft | 492 kts | 122° |
| 2026-05-07 13:07 | 55.76942 | 104.85986 | 38933 ft | 492 kts | 122° |
| 2026-05-07 13:08 | 55.73219 | 104.96184 | 38933 ft | 492 kts | 122° |
| 2026-05-07 13:08 | 55.69479 | 105.06364 | 38932 ft | 492 kts | 122° |
| 2026-05-07 13:09 | 55.65687 | 105.16467 | 38929 ft | 492 kts | 123° |
| 2026-05-07 13:09 | 55.61870 | 105.26535 | 38938 ft | 492 kts | 123° |
| 2026-05-07 13:10 | 55.58052 | 105.36577 | 38921 ft | 492 kts | 123° |
| 2026-05-07 13:10 | 55.54255 | 105.46537 | 38928 ft | 492 kts | 123° |
| 2026-05-07 13:11 | 55.50423 | 105.56552 | 38929 ft | 492 kts | 123° |
| 2026-05-07 13:11 | 55.46585 | 105.66545 | 38927 ft | 492 kts | 123° |
| 2026-05-07 13:12 | 55.42734 | 105.76530 | 38934 ft | 492 kts | 123° |
| 2026-05-07 13:12 | 55.38884 | 105.86471 | 38932 ft | 492 kts | 123° |
| 2026-05-07 13:13 | 55.35027 | 105.96399 | 38937 ft | 492 kts | 123° |
| 2026-05-07 13:13 | 55.31168 | 106.06310 | 38937 ft | 491 kts | 123° |
| 2026-05-07 13:14 | 55.27301 | 106.16189 | 38944 ft | 491 kts | 123° |
| 2026-05-07 13:14 | 55.23417 | 106.26063 | 38943 ft | 491 kts | 123° |
| 2026-05-07 13:15 | 55.19552 | 106.35854 | 38948 ft | 492 kts | 123° |
| 2026-05-07 13:15 | 55.15648 | 106.45705 | 38947 ft | 493 kts | 123° |
| 2026-05-07 13:16 | 55.11730 | 106.55544 | 38947 ft | 493 kts | 124° |
| 2026-05-07 13:16 | 55.07804 | 106.65363 | 38964 ft | 493 kts | 123° |
| 2026-05-07 13:17 | 55.03872 | 106.75158 | 38960 ft | 492 kts | 123° |
| 2026-05-07 13:17 | 54.99935 | 106.84928 | 38969 ft | 492 kts | 124° |
| 2026-05-07 13:18 | 54.96022 | 106.94602 | 38971 ft | 492 kts | 124° |
| 2026-05-07 13:18 | 54.92073 | 107.04326 | 38980 ft | 492 kts | 124° |
| 2026-05-07 13:19 | 54.88112 | 107.14042 | 38980 ft | 492 kts | 124° |
| 2026-05-07 13:19 | 54.84138 | 107.23749 | 38989 ft | 493 kts | 124° |
| 2026-05-07 13:20 | 54.80154 | 107.33448 | 38970 ft | 493 kts | 124° |
| 2026-05-07 13:20 | 54.76192 | 107.43060 | 38998 ft | 493 kts | 124° |
| 2026-05-07 13:21 | 54.72199 | 107.52710 | 39002 ft | 492 kts | 124° |
| 2026-05-07 13:21 | 54.68197 | 107.62345 | 39015 ft | 492 kts | 124° |
| 2026-05-07 13:22 | 54.64184 | 107.71970 | 39015 ft | 492 kts | 124° |
| 2026-05-07 13:22 | 54.60175 | 107.81547 | 39032 ft | 492 kts | 124° |
| 2026-05-07 13:23 | 54.56156 | 107.91114 | 39045 ft | 492 kts | 124° |
| 2026-05-07 13:23 | 54.52127 | 108.00665 | 39048 ft | 493 kts | 124° |
| 2026-05-07 13:24 | 54.48108 | 108.10158 | 39057 ft | 494 kts | 124° |
| 2026-05-07 13:24 | 54.44054 | 108.19695 | 39057 ft | 494 kts | 125° |
| 2026-05-07 13:25 | 54.39987 | 108.29228 | 39069 ft | 494 kts | 125° |
| 2026-05-07 13:25 | 54.35911 | 108.38743 | 39075 ft | 495 kts | 124° |
| 2026-05-07 13:26 | 54.31847 | 108.48195 | 39087 ft | 496 kts | 125° |
| 2026-05-07 13:26 | 54.27745 | 108.57702 | 39086 ft | 496 kts | 125° |
| 2026-05-07 13:27 | 54.23638 | 108.67184 | 39097 ft | 496 kts | 125° |
| 2026-05-07 13:27 | 54.19520 | 108.76650 | 39108 ft | 496 kts | 125° |
| 2026-05-07 13:28 | 54.15391 | 108.86107 | 39113 ft | 496 kts | 125° |
| 2026-05-07 13:28 | 54.11259 | 108.95536 | 39102 ft | 496 kts | 125° |
| 2026-05-07 13:29 | 54.07149 | 109.04880 | 39102 ft | 496 kts | 125° |
| 2026-05-07 13:29 | 54.03001 | 109.14272 | 39088 ft | 496 kts | 126° |
| 2026-05-07 13:30 | 53.98844 | 109.23652 | 39088 ft | 496 kts | 126° |
| 2026-05-07 13:30 | 53.94684 | 109.33004 | 39070 ft | 496 kts | 126° |
| 2026-05-07 13:31 | 53.90520 | 109.42331 | 39069 ft | 496 kts | 126° |
| 2026-05-07 13:31 | 53.86347 | 109.51641 | 39056 ft | 496 kts | 126° |
| 2026-05-07 13:32 | 53.82164 | 109.60943 | 39043 ft | 496 kts | 126° |
| 2026-05-07 13:32 | 53.77971 | 109.70216 | 39055 ft | 496 kts | 126° |
| 2026-05-07 13:33 | 53.73772 | 109.79480 | 39038 ft | 496 kts | 126° |
| 2026-05-07 13:33 | 53.69597 | 109.88663 | 39048 ft | 496 kts | 126° |
| 2026-05-07 13:34 | 53.63265 | 110.02523 | 39036 ft | 496 kts | 126° |
| 2026-05-07 13:35 | 53.59037 | 110.11726 | 39056 ft | 496 kts | 126° |
| 2026-05-07 13:35 | 53.54837 | 110.20831 | 39052 ft | 496 kts | 126° |
| 2026-05-07 13:36 | 53.50599 | 110.29987 | 39066 ft | 497 kts | 126° |
| 2026-05-07 13:36 | 53.46347 | 110.39140 | 39070 ft | 497 kts | 126° |
| 2026-05-07 13:37 | 53.42081 | 110.48291 | 39078 ft | 497 kts | 127° |
| 2026-05-07 13:37 | 53.37814 | 110.57410 | 39077 ft | 497 kts | 127° |
| 2026-05-07 13:38 | 53.33533 | 110.66526 | 39089 ft | 497 kts | 127° |
| 2026-05-07 13:38 | 53.29245 | 110.75622 | 39076 ft | 497 kts | 127° |
| 2026-05-07 13:39 | 53.24957 | 110.84689 | 39072 ft | 497 kts | 127° |
| 2026-05-07 13:39 | 53.20681 | 110.93696 | 39096 ft | 497 kts | 127° |
| 2026-05-07 13:40 | 53.16376 | 111.02730 | 39095 ft | 498 kts | 127° |
| 2026-05-07 13:40 | 53.12054 | 111.11768 | 39084 ft | 498 kts | 127° |
| 2026-05-07 13:41 | 53.07728 | 111.20784 | 39084 ft | 498 kts | 127° |
| 2026-05-07 13:41 | 53.03417 | 111.29735 | 39094 ft | 499 kts | 127° |
| 2026-05-07 13:42 | 52.99068 | 111.38734 | 39075 ft | 499 kts | 127° |
| 2026-05-07 13:42 | 52.94710 | 111.47718 | 39072 ft | 499 kts | 127° |
| 2026-05-07 13:43 | 52.90348 | 111.56680 | 39055 ft | 499 kts | 127° |
| 2026-05-07 13:43 | 52.86011 | 111.65557 | 39058 ft | 499 kts | 127° |
| 2026-05-07 13:44 | 52.81633 | 111.74487 | 39046 ft | 499 kts | 127° |
| 2026-05-07 13:44 | 52.77256 | 111.83382 | 39042 ft | 498 kts | 127° |
| 2026-05-07 13:45 | 52.72877 | 111.92252 | 39029 ft | 498 kts | 127° |
| 2026-05-07 13:45 | 52.68493 | 112.01100 | 39019 ft | 498 kts | 128° |
| 2026-05-07 13:46 | 52.64097 | 112.09943 | 39031 ft | 499 kts | 128° |
| 2026-05-07 13:46 | 52.59689 | 112.18777 | 39016 ft | 499 kts | 128° |
| 2026-05-07 13:47 | 52.55306 | 112.27532 | 39014 ft | 499 kts | 128° |
| 2026-05-07 13:47 | 52.50887 | 112.36327 | 39009 ft | 499 kts | 128° |
| 2026-05-07 13:48 | 52.47202 | 112.43636 | 39006 ft | 499 kts | 128° |
| 2026-05-07 13:48 | 52.42772 | 112.52397 | 39004 ft | 499 kts | 128° |
| 2026-05-07 13:49 | 52.38331 | 112.61149 | 38995 ft | 499 kts | 128° |
| 2026-05-07 13:49 | 52.33892 | 112.69868 | 38998 ft | 499 kts | 128° |
| 2026-05-07 13:50 | 52.29443 | 112.78575 | 38993 ft | 499 kts | 128° |
| 2026-05-07 13:50 | 52.24749 | 112.87729 | 38985 ft | 499 kts | 128° |
| 2026-05-07 13:51 | 52.20285 | 112.96406 | 38993 ft | 500 kts | 128° |
| 2026-05-07 13:51 | 52.15812 | 113.05070 | 38992 ft | 500 kts | 128° |
| 2026-05-07 13:52 | 52.11326 | 113.13728 | 38993 ft | 500 kts | 128° |
| 2026-05-07 13:52 | 52.06864 | 113.22312 | 38993 ft | 500 kts | 128° |
| 2026-05-07 13:53 | 52.02239 | 113.30771 | 38994 ft | 501 kts | 136° |
| 2026-05-07 13:53 | 51.97005 | 113.38290 | 38996 ft | 502 kts | 138° |
| 2026-05-07 13:54 | 51.91652 | 113.45571 | 38982 ft | 502 kts | 139° |
| 2026-05-07 13:54 | 51.86271 | 113.52804 | 39007 ft | 502 kts | 139° |
| 2026-05-07 13:55 | 51.80926 | 113.59994 | 38991 ft | 503 kts | 139° |
| 2026-05-07 13:55 | 51.75549 | 113.67227 | 38990 ft | 503 kts | 139° |
| 2026-05-07 13:56 | 51.70167 | 113.74453 | 38983 ft | 503 kts | 139° |
| 2026-05-07 13:56 | 51.64783 | 113.81659 | 38981 ft | 503 kts | 139° |
| 2026-05-07 13:57 | 51.59397 | 113.88837 | 38983 ft | 502 kts | 139° |
| 2026-05-07 13:57 | 51.54004 | 113.95984 | 38981 ft | 502 kts | 139° |
| 2026-05-07 13:58 | 51.48608 | 114.03107 | 38976 ft | 502 kts | 139° |
| 2026-05-07 13:58 | 51.43206 | 114.10218 | 38966 ft | 502 kts | 139° |
| 2026-05-07 13:59 | 51.37838 | 114.17264 | 38975 ft | 502 kts | 139° |
| 2026-05-07 13:59 | 51.32423 | 114.24349 | 38975 ft | 502 kts | 139° |
| 2026-05-07 14:00 | 51.27004 | 114.31418 | 38981 ft | 502 kts | 140° |
| 2026-05-07 14:00 | 51.21580 | 114.38470 | 38982 ft | 502 kts | 140° |
| 2026-05-07 14:01 | 51.16154 | 114.45504 | 38997 ft | 502 kts | 140° |
| 2026-05-07 14:01 | 51.10933 | 114.52853 | 38978 ft | 500 kts | 129° |
| 2026-05-07 14:02 | 51.06988 | 114.61868 | 38984 ft | 496 kts | 118° |
| 2026-05-07 14:02 | 51.03566 | 114.71317 | 38970 ft | 496 kts | 116° |
| 2026-05-07 14:03 | 51.00200 | 114.80912 | 38986 ft | 496 kts | 116° |
| 2026-05-07 14:03 | 50.96817 | 114.90453 | 38981 ft | 496 kts | 117° |
| 2026-05-07 14:04 | 50.93398 | 114.99972 | 38985 ft | 495 kts | 117° |
| 2026-05-07 14:04 | 50.89971 | 115.09444 | 38987 ft | 495 kts | 117° |
| 2026-05-07 14:05 | 50.86559 | 115.18841 | 38988 ft | 495 kts | 117° |
| 2026-05-07 14:05 | 50.83113 | 115.28297 | 39002 ft | 495 kts | 117° |
| 2026-05-07 14:06 | 50.79666 | 115.37724 | 39010 ft | 495 kts | 117° |
| 2026-05-07 14:06 | 50.76206 | 115.47151 | 39010 ft | 495 kts | 117° |
| 2026-05-07 14:07 | 50.72743 | 115.56554 | 39022 ft | 495 kts | 117° |
| 2026-05-07 14:07 | 50.69272 | 115.65943 | 39026 ft | 495 kts | 118° |
| 2026-05-07 14:08 | 50.65797 | 115.75309 | 39033 ft | 494 kts | 118° |
| 2026-05-07 14:08 | 50.62339 | 115.84596 | 39040 ft | 494 kts | 118° |
| 2026-05-07 14:09 | 50.58854 | 115.93923 | 39040 ft | 494 kts | 118° |
| 2026-05-07 14:09 | 50.55280 | 116.03159 | 39043 ft | 494 kts | 120° |
| 2026-05-07 14:10 | 50.51617 | 116.12280 | 39053 ft | 493 kts | 120° |
| 2026-05-07 14:10 | 50.47937 | 116.21397 | 39046 ft | 494 kts | 120° |
| 2026-05-07 14:11 | 50.44262 | 116.30512 | 39056 ft | 494 kts | 120° |
| 2026-05-07 14:11 | 50.40571 | 116.39650 | 39057 ft | 494 kts | 121° |
| 2026-05-07 14:12 | 50.36064 | 116.47792 | 39054 ft | 497 kts | 137° |
| 2026-05-07 14:12 | 50.30789 | 116.54731 | 39053 ft | 498 kts | 140° |